Home > Products > Valid Products > OSO

000
SXUS55 KMSO 300444
OSOMSO
MONTANA AWOS SUMMARY
NATIONAL WEATHER SERVICE MISSOULA MT
1043 PM MDT TUE JUL 29 2014

Montana AWOS Reports

ROUNDUP     |KRPX 300435Z AUTO 00000KT 40SM 23/03 A3010 RMK AO1 T02330033






000
SXUS55 KMSO 300423
OSOMSO
MONTANA AWOS SUMMARY
NATIONAL WEATHER SERVICE MISSOULA MT
1023 PM MDT TUE JUL 29 2014

Montana AWOS Reports

LAUREL      |K6S8 300415Z AUTO 00000KT 40SM 21/11 A3018 RMK AO1 T02060106
ROUNDUP     |KRPX 300415Z AUTO 00000KT 40SM 24/03 A3010 RMK AO1 T02390033
MALTA       |KM75 300415Z AUTO 00000KT 40SM 21/11 A3012 RMK AO1 T02110106






000
SXUS55 KMSO 300413
OSOMSO
MONTANA AWOS SUMMARY
NATIONAL WEATHER SERVICE MISSOULA MT
1013 PM MDT TUE JUL 29 2014

Montana AWOS Reports

ROUNDUP     |KRPX 300355Z AUTO 00000KT 40SM 24/03 A3010 RMK AO1 T02440033
SCOBEY      |K9S2 300355Z AUTO 00000KT 16/11 A3018 RMK AO1 T01610106
MALTA       |KM75 300355Z AUTO 00000KT 40SM 22/11 A3011 RMK AO1 T02220111
PLAINS      |KS34 300355Z AUTO 00000KT 40SM 26/07 A3005 RMK AO1 T02560072
EKALAKA     |K97M 300355Z AUTO 00000KT 40SM 19/05 A3018 RMK AO1 T01940050






000
SXUS55 KMSO 300403
OSOMSO
MONTANA AWOS SUMMARY
NATIONAL WEATHER SERVICE MISSOULA MT
1003 PM MDT TUE JUL 29 2014

Montana AWOS Reports

LAUREL      |K6S8 300355Z AUTO 00000KT 40SM 22/11 A3017 RMK AO1 T02170111






000
SXUS55 KMSO 300343
OSOMSO
MONTANA AWOS SUMMARY
NATIONAL WEATHER SERVICE MISSOULA MT
943 PM MDT TUE JUL 29 2014

Montana AWOS Reports

LAUREL      |K6S8 300335Z AUTO 00000KT 25SM 24/11 A3017 RMK AO1 T02390111
ROUNDUP     |KRPX 300335Z AUTO 00000KT 40SM 25/03 A3009 RMK AO1 T02500033






000
SXUS55 KMSO 300323
OSOMSO
MONTANA AWOS SUMMARY
NATIONAL WEATHER SERVICE MISSOULA MT
923 PM MDT TUE JUL 29 2014

Montana AWOS Reports

LAUREL      |K6S8 300315Z AUTO 00000KT 40SM 25/09 A3016 RMK AO1 T02500094
ROUNDUP     |KRPX 300315Z AUTO 00000KT 40SM 26/03 A3009 RMK AO1 T02560033






000
SXUS55 KMSO 300303
OSOMSO
MONTANA AWOS SUMMARY
NATIONAL WEATHER SERVICE MISSOULA MT
903 PM MDT TUE JUL 29 2014

Montana AWOS Reports

LAUREL      |K6S8 300255Z AUTO 00000KT 40SM 26/10 A3016 RMK AO1 T02610100
ROUNDUP     |KRPX 300255Z AUTO 00000KT 40SM 26/03 A3008 RMK AO1 T02560033
EKALAKA     |K97M 300255Z AUTO 00000KT 40SM 21/07 A3017 RMK AO1 T02060067
SCOBEY      |K9S2 300255Z AUTO 00000KT 19/12 A3017 RMK AO1 T01940117
PLAINS      |KS34 300255Z AUTO 00000KT 40SM 31/10 A3002 RMK AO1 T03110100






000
SXUS55 KMSO 300243
OSOMSO
MONTANA AWOS SUMMARY
NATIONAL WEATHER SERVICE MISSOULA MT
843 PM MDT TUE JUL 29 2014

Montana AWOS Reports

LAUREL      |K6S8 300235Z AUTO 00000KT 40SM 26/11 A3015 RMK AO1 T02610111
ROUNDUP     |KRPX 300235Z AUTO 00000KT 40SM 27/03 A3008 RMK AO1 T02720028
MALTA       |KM75 300235Z AUTO 00000KT 40SM 28/11 A3009 RMK AO1 T02780111






000
SXUS55 KMSO 300223
OSOMSO
MONTANA AWOS SUMMARY
NATIONAL WEATHER SERVICE MISSOULA MT
823 PM MDT TUE JUL 29 2014

Montana AWOS Reports

LAUREL      |K6S8 300215Z AUTO 13004KT 40SM 27/11 A3015 RMK AO1 T02670111
ROUNDUP     |KRPX 300215Z AUTO 00000KT 40SM 28/02 A3007 RMK AO1 T02830022






000
SXUS55 KMSO 300214
OSOMSO
MONTANA AWOS SUMMARY
NATIONAL WEATHER SERVICE MISSOULA MT
813 PM MDT TUE JUL 29 2014

Montana AWOS Reports

ROUNDUP     |KRPX 300155Z AUTO 00000KT 40SM 29/03 A3007 RMK AO1 T02940033
PLAINS      |KS34 300155Z AUTO 00000KT 40SM 34/06 A3001 RMK AO1 T03440061
SCOBEY      |K9S2 300155Z AUTO 00000KT 24/12 A3017 RMK AO1 T02390117
MALTA       |KM75 300155Z AUTO 07004KT 40SM 31/11 A3008 RMK AO1 T03060106






000
SXUS55 KMSO 300203
OSOMSO
MONTANA AWOS SUMMARY
NATIONAL WEATHER SERVICE MISSOULA MT
803 PM MDT TUE JUL 29 2014

Montana AWOS Reports

LAUREL      |K6S8 300155Z AUTO 00000KT 40SM 27/11 A3014 RMK AO1 T02670106
EKALAKA     |K97M 300155Z AUTO 00000KT 40SM 25/08 A3016 RMK AO1 T02500078






000
SXUS55 KMSO 300144
OSOMSO
MONTANA AWOS SUMMARY
NATIONAL WEATHER SERVICE MISSOULA MT
743 PM MDT TUE JUL 29 2014

Montana AWOS Reports

LAUREL      |K6S8 300135Z AUTO 17007KT 40SM 28/11 A3014 RMK AO1 T02830111
ROUNDUP     |KRPX 300135Z AUTO 07005KT 40SM 30/03 A3007 RMK AO1 T03000028






000
SXUS55 KMSO 300123
OSOMSO
MONTANA AWOS SUMMARY
NATIONAL WEATHER SERVICE MISSOULA MT
723 PM MDT TUE JUL 29 2014

Montana AWOS Reports

LAUREL      |K6S8 300115Z AUTO 12005KT 40SM 29/10 A3013 RMK AO1 T02890100
ROUNDUP     |KRPX 300115Z AUTO 07007KT 40SM 31/03 A3007 RMK AO1 T03060028
MALTA       |KM75 300115Z AUTO 07004KT 40SM 32/11 A3008 RMK AO1 T03220106






000
SXUS55 KMSO 300113
OSOMSO
MONTANA AWOS SUMMARY
NATIONAL WEATHER SERVICE MISSOULA MT
713 PM MDT TUE JUL 29 2014

Montana AWOS Reports

MALTA       |KM75 300055Z AUTO 07006KT 40SM 33/09 A3008 RMK AO1 T03280094






000
SXUS55 KMSO 300104
OSOMSO
MONTANA AWOS SUMMARY
NATIONAL WEATHER SERVICE MISSOULA MT
703 PM MDT TUE JUL 29 2014

Montana AWOS Reports

EKALAKA     |K97M 300055Z AUTO 00000KT 40SM 27/06 A3015 RMK AO1 T02670061
LAUREL      |K6S8 300055Z AUTO 00000KT 40SM 30/11 A3013 RMK AO1 T03000106
ROUNDUP     |KRPX 300055Z AUTO 05009KT 40SM 31/03 A3007 RMK AO1 T03060028
SCOBEY      |K9S2 300055Z AUTO 01006KT 26/11 A3017 RMK AO1 T02560106
PLAINS      |KS34 300055Z AUTO 00000KT 40SM 37/06 A3001 RMK AO1 T03670061






000
SXUS55 KMSO 300043
OSOMSO
MONTANA AWOS SUMMARY
NATIONAL WEATHER SERVICE MISSOULA MT
643 PM MDT TUE JUL 29 2014

Montana AWOS Reports

LAUREL      |K6S8 300035Z AUTO 00000KT 40SM 30/10 A3013 RMK AO1 T03000100
ROUNDUP     |KRPX 300035Z AUTO 00000KT 40SM 32/03 A3007 RMK AO1 T03170033
MALTA       |KM75 300035Z AUTO 07005KT 40SM 33/09 A3008 RMK AO1 T03330089
MALTA       |KM75 292355Z AUTO 00000KT 40SM 34/09 A3009 RMK AO1 T03390094






000
SXUS55 KMSO 300033
OSOMSO
MONTANA AWOS SUMMARY
NATIONAL WEATHER SERVICE MISSOULA MT
632 PM MDT TUE JUL 29 2014

Montana AWOS Reports

MALTA       |KM75 292155Z AUTO 00000KT 40SM 34/09 A3011 RMK AO1 T03390094






000
SXUS55 KMSO 300023
OSOMSO
MONTANA AWOS SUMMARY
NATIONAL WEATHER SERVICE MISSOULA MT
623 PM MDT TUE JUL 29 2014

Montana AWOS Reports

LAUREL      |K6S8 300015Z AUTO 00000KT 40SM 29/09 A3013 RMK AO1 T02940089
ROUNDUP     |KRPX 300015Z AUTO 08007KT 40SM 31/03 A3007 RMK AO1 T03110033
MALTA       |KM75 300015Z AUTO 07006KT 40SM 34/09 A3008 RMK AO1 T03390094






000
SXUS55 KMSO 300004
OSOMSO
MONTANA AWOS SUMMARY
NATIONAL WEATHER SERVICE MISSOULA MT
603 PM MDT TUE JUL 29 2014

Montana AWOS Reports

LAUREL      |K6S8 292355Z AUTO 05004KT 40SM 30/08 A3013 RMK AO1 T03000078
ROUNDUP     |KRPX 292355Z AUTO 11006KT 40SM 32/03 A3007 RMK AO1 T03170033
SCOBEY      |K9S2 292355Z AUTO 36009KT 27/11 A3017 RMK AO1 T02670106
MALTA       |KM75 292055Z AUTO 06008KT 40SM 34/10 A3011 RMK AO1 T03390100
EKALAKA     |K97M 292355Z AUTO 34005KT 40SM 27/07 A3016 RMK AO1 T02670067
PLAINS      |KS34 292355Z AUTO 00000KT 40SM 37/07 A3002 RMK AO1 T03670067






000
SXUS55 KMSO 292353
OSOMSO
MONTANA AWOS SUMMARY
NATIONAL WEATHER SERVICE MISSOULA MT
552 PM MDT TUE JUL 29 2014

Montana AWOS Reports

MALTA       |KM75 291655Z AUTO 05006KT 40SM 28/12 A3015 RMK AO1 T02780117
MALTA       |KM75 291755Z AUTO 05004KT 40SM 31/11 A3014 RMK AO1 T03060111
MALTA       |KM75 291855Z AUTO 05006KT 40SM 32/11 A3013 RMK AO1 T03220111
MALTA       |KM75 291955Z AUTO 06009G13KT 40SM 33/09 A3012 RMK AO1 T03280094






000
SXUS55 KMSO 292343
OSOMSO
MONTANA AWOS SUMMARY
NATIONAL WEATHER SERVICE MISSOULA MT
543 PM MDT TUE JUL 29 2014

Montana AWOS Reports

ROUNDUP     |KRPX 292335Z AUTO 07011KT 40SM 32/04 A3007 RMK AO1 T03220039






000
SXUS55 KMSO 292323
OSOMSO
MONTANA AWOS SUMMARY
NATIONAL WEATHER SERVICE MISSOULA MT
523 PM MDT TUE JUL 29 2014

Montana AWOS Reports

LAUREL      |K6S8 292315Z AUTO 05008KT 40SM 31/08 A3014 RMK AO1 T03110083
ROUNDUP     |KRPX 292315Z AUTO 08007KT 40SM 31/03 A3008 RMK AO1 T03060033
MALTA       |KM75 292315Z AUTO 00000KT 40SM 34/08 A3009 RMK AO1 T03390083






000
SXUS55 KMSO 292313
OSOMSO
MONTANA AWOS SUMMARY
NATIONAL WEATHER SERVICE MISSOULA MT
512 PM MDT TUE JUL 29 2014

Montana AWOS Reports

LAUREL      |K6S8 292255Z AUTO 02008KT 40SM 31/08 A3014 RMK AO1 T03110083
ROUNDUP     |KRPX 292255Z AUTO 07009G14KT 40SM 32/04 A3007 RMK AO1 T03170044
SCOBEY      |K9S2 292255Z AUTO 35007KT 27/10 A3018 RMK AO1 T02720100
EKALAKA     |K97M 292255Z AUTO 35006KT 40SM 28/06 A3017 RMK AO1 T02780056
PLAINS      |KS34 292255Z AUTO 00000KT 40SM 38/07 A3003 RMK AO1 T03780067






000
SXUS55 KMSO 292303
OSOMSO
MONTANA AWOS SUMMARY
NATIONAL WEATHER SERVICE MISSOULA MT
503 PM MDT TUE JUL 29 2014

Montana AWOS Reports

MALTA       |KM75 292255Z AUTO 06004KT 40SM 34/09 A3009 RMK AO1 T03440089






000
SXUS55 KMSO 292243
OSOMSO
MONTANA AWOS SUMMARY
NATIONAL WEATHER SERVICE MISSOULA MT
443 PM MDT TUE JUL 29 2014

Montana AWOS Reports

LAUREL      |K6S8 292235Z AUTO 04005KT 40SM 30/08 A3014 RMK AO1 T03000083
ROUNDUP     |KRPX 292235Z AUTO 00000KT 40SM 32/05 A3008 RMK AO1 T03170050
MALTA       |KM75 292235Z AUTO 06006KT 40SM 36/11 A3010 RMK AO1 T03610106






000
SXUS55 KMSO 292223
OSOMSO
MONTANA AWOS SUMMARY
NATIONAL WEATHER SERVICE MISSOULA MT
423 PM MDT TUE JUL 29 2014

Montana AWOS Reports

SCOBEY      |K9S2 292155Z AUTO 36009KT 28/10 A3018 RMK AO1 T02780100
LAUREL      |K6S8 292215Z AUTO 06007KT 40SM 30/08 A3014 RMK AO1 T03000083
ROUNDUP     |KRPX 292215Z AUTO 03006KT 40SM 32/05 A3008 RMK AO1 T03170050
MALTA       |KM75 292215Z AUTO 06005KT 40SM 34/09 A3010 RMK AO1 T03440089






000
SXUS55 KMSO 292203
OSOMSO
MONTANA AWOS SUMMARY
NATIONAL WEATHER SERVICE MISSOULA MT
403 PM MDT TUE JUL 29 2014

Montana AWOS Reports

LAUREL      |K6S8 292155Z AUTO 03004KT 40SM 32/07 A3014 RMK AO1 T03170072
ROUNDUP     |KRPX 292155Z AUTO VRB04KT 40SM 31/06 A3009 RMK AO1 T03110056
EKALAKA     |K97M 292155Z AUTO 00000KT 40SM 28/06 A3018 RMK AO1 T02780056
PLAINS      |KS34 292155Z AUTO 00000KT 40SM 38/07 A3005 RMK AO1 T03780067






000
SXUS55 KMSO 292154
OSOMSO
MONTANA AWOS SUMMARY
NATIONAL WEATHER SERVICE MISSOULA MT
353 PM MDT TUE JUL 29 2014

Montana AWOS Reports

ROUNDUP     |KRPX 292135Z AUTO 06007KT 40SM 31/06 A3009 RMK AO1 T03110056
MALTA       |KM75 292135Z AUTO 06006KT 40SM 33/09 A3011 RMK AO1 T03330089






000
SXUS55 KMSO 292143
OSOMSO
MONTANA AWOS SUMMARY
NATIONAL WEATHER SERVICE MISSOULA MT
343 PM MDT TUE JUL 29 2014

Montana AWOS Reports

LAUREL      |K6S8 292135Z AUTO 07005KT 40SM 31/09 A3015 RMK AO1 T03060089






000
SXUS55 KMSO 292124
OSOMSO
MONTANA AWOS SUMMARY
NATIONAL WEATHER SERVICE MISSOULA MT
323 PM MDT TUE JUL 29 2014

Montana AWOS Reports

MALTA       |KM75 291455Z AUTO 05006KT 40SM 23/11 A3016 RMK AO1 T02280111
LAUREL      |K6S8 292115Z AUTO 00000KT 40SM 32/08 A3015 RMK AO1 T03170078
ROUNDUP     |KRPX 292115Z AUTO 07005KT 40SM 31/05 A3009 RMK AO1 T03110050
MALTA       |KM75 292115Z AUTO 06006KT 40SM 34/10 A3011 RMK AO1 T03390100






000
SXUS55 KMSO 292114
OSOMSO
MONTANA AWOS SUMMARY
NATIONAL WEATHER SERVICE MISSOULA MT
313 PM MDT TUE JUL 29 2014

Montana AWOS Reports

SCOBEY      |K9S2 292055Z AUTO 36008KT 28/10 A3019 RMK AO1 T02780100
PLAINS      |KS34 292055Z AUTO 00000KT 40SM 36/07 A3007 RMK AO1 T03610072
EKALAKA     |K97M 292055Z AUTO 00000KT 40SM 28/07 A3019 RMK AO1 T02780067






000
SXUS55 KMSO 292104
OSOMSO
MONTANA AWOS SUMMARY
NATIONAL WEATHER SERVICE MISSOULA MT
303 PM MDT TUE JUL 29 2014

Montana AWOS Reports

LAUREL      |K6S8 292055Z AUTO 00000KT 40SM 32/10 A3015 RMK AO1 T03170100
ROUNDUP     |KRPX 292055Z AUTO 10005KT 40SM 31/06 A3010 RMK AO1 T03060056






000
SXUS55 KMSO 292053
OSOMSO
MONTANA AWOS SUMMARY
NATIONAL WEATHER SERVICE MISSOULA MT
252 PM MDT TUE JUL 29 2014

Montana AWOS Reports

ROUNDUP     |KRPX 292035Z AUTO 13005KT 40SM 31/06 A3010 RMK AO1 T03060056






000
SXUS55 KMSO 292043
OSOMSO
MONTANA AWOS SUMMARY
NATIONAL WEATHER SERVICE MISSOULA MT
242 PM MDT TUE JUL 29 2014

Montana AWOS Reports

LAUREL      |K6S8 292035Z AUTO 00000KT 40SM 31/10 A3015 RMK AO1 T03110100






000
SXUS55 KMSO 292034
OSOMSO
MONTANA AWOS SUMMARY
NATIONAL WEATHER SERVICE MISSOULA MT
233 PM MDT TUE JUL 29 2014

Montana AWOS Reports

MALTA       |KM75 291355Z AUTO 05006KT 40SM 20/10 A3016 RMK AO1 T02000100






000
SXUS55 KMSO 292024
OSOMSO
MONTANA AWOS SUMMARY
NATIONAL WEATHER SERVICE MISSOULA MT
223 PM MDT TUE JUL 29 2014

Montana AWOS Reports

LAUREL      |K6S8 292015Z AUTO 00000KT 40SM 31/10 A3016 RMK AO1 T03110100
ROUNDUP     |KRPX 292015Z AUTO 04008KT 40SM 31/06 A3010 RMK AO1 T03110061
MALTA       |KM75 292015Z AUTO 05005KT 40SM 33/10 A3012 RMK AO1 T03280100






000
SXUS55 KMSO 292014
OSOMSO
MONTANA AWOS SUMMARY
NATIONAL WEATHER SERVICE MISSOULA MT
213 PM MDT TUE JUL 29 2014

Montana AWOS Reports

PLAINS      |KS34 291955Z AUTO 00000KT 25SM 35/08 A3009 RMK AO1 T03500078
SCOBEY      |K9S2 291955Z AUTO 35007KT 27/09 A3019 RMK AO1 T02720094
EKALAKA     |K97M 291955Z AUTO 33005KT 40SM 27/08 A3019 RMK AO1 T02720078






000
SXUS55 KMSO 292003
OSOMSO
MONTANA AWOS SUMMARY
NATIONAL WEATHER SERVICE MISSOULA MT
203 PM MDT TUE JUL 29 2014

Montana AWOS Reports

LAUREL      |K6S8 291955Z AUTO 00000KT 40SM 30/09 A3016 RMK AO1 T03000089






000
SXUS55 KMSO 291944
OSOMSO
MONTANA AWOS SUMMARY
NATIONAL WEATHER SERVICE MISSOULA MT
143 PM MDT TUE JUL 29 2014

Montana AWOS Reports

LAUREL      |K6S8 291935Z AUTO 00000KT 40SM 29/10 A3017 RMK AO1 T02890100
ROUNDUP     |KRPX 291935Z AUTO 04007KT 40SM 30/06 A3011 RMK AO1 T03000061






000
SXUS55 KMSO 291924
OSOMSO
MONTANA AWOS SUMMARY
NATIONAL WEATHER SERVICE MISSOULA MT
123 PM MDT TUE JUL 29 2014

Montana AWOS Reports

LAUREL      |K6S8 291915Z AUTO 00000KT 40SM 29/11 A3017 RMK AO1 T02940106
ROUNDUP     |KRPX 291915Z AUTO 09007KT 40SM 30/06 A3011 RMK AO1 T03000061






000
SXUS55 KMSO 291913
OSOMSO
MONTANA AWOS SUMMARY
NATIONAL WEATHER SERVICE MISSOULA MT
113 PM MDT TUE JUL 29 2014

Montana AWOS Reports

EKALAKA     |K97M 291855Z AUTO 34005KT 40SM 25/08 A3020 RMK AO1 T02500078






000
SXUS55 KMSO 291903
OSOMSO
MONTANA AWOS SUMMARY
NATIONAL WEATHER SERVICE MISSOULA MT
103 PM MDT TUE JUL 29 2014

Montana AWOS Reports

LAUREL      |K6S8 291855Z AUTO 00000KT 40SM 29/11 A3017 RMK AO1 T02890106
ROUNDUP     |KRPX 291855Z AUTO 00000KT 40SM 29/06 A3011 RMK AO1 T02940056






000
SXUS55 KMSO 291853
OSOMSO
MONTANA AWOS SUMMARY
NATIONAL WEATHER SERVICE MISSOULA MT
1253 PM MDT TUE JUL 29 2014

Montana AWOS Reports

MALTA       |KM75 291255Z AUTO 00000KT 40SM 16/09 A3016 RMK AO1 T01560094
EKALAKA     |K97M 291755Z AUTO 00000KT 40SM 26/07 A3021 RMK AO1 T02560067






000
SXUS55 KMSO 291843
OSOMSO
MONTANA AWOS SUMMARY
NATIONAL WEATHER SERVICE MISSOULA MT
1243 PM MDT TUE JUL 29 2014

Montana AWOS Reports

LAUREL      |K6S8 291835Z AUTO 00000KT 40SM 29/10 A3018 RMK AO1 T02890100
ROUNDUP     |KRPX 291835Z AUTO 14006KT 40SM 29/05 A3012 RMK AO1 T02890050






000
SXUS55 KMSO 291823
OSOMSO
MONTANA AWOS SUMMARY
NATIONAL WEATHER SERVICE MISSOULA MT
1223 PM MDT TUE JUL 29 2014

Montana AWOS Reports

LAUREL      |K6S8 291815Z AUTO 00000KT 40SM 28/11 A3018 RMK AO1 T02830106
ROUNDUP     |KRPX 291815Z AUTO 07008KT 40SM 29/05 A3012 RMK AO1 T02940050






000
SXUS55 KMSO 291813
OSOMSO
MONTANA AWOS SUMMARY
NATIONAL WEATHER SERVICE MISSOULA MT
1213 PM MDT TUE JUL 29 2014

Montana AWOS Reports

EKALAKA     |K97M 291655Z AUTO 00000KT 40SM 26/09 A3021 RMK AO1 T02560089






000
SXUS55 KMSO 291803
OSOMSO
MONTANA AWOS SUMMARY
NATIONAL WEATHER SERVICE MISSOULA MT
1203 PM MDT TUE JUL 29 2014

Montana AWOS Reports

LAUREL      |K6S8 291755Z AUTO 03004KT 40SM 27/10 A3019 RMK AO1 T02720100
ROUNDUP     |KRPX 291755Z AUTO 09006KT 40SM 28/05 A3013 RMK AO1 T02830050
PLAINS      |KS34 291755Z AUTO 00000KT 40SM 29/09 A3013 RMK AO1 T02940089
SCOBEY      |K9S2 291755Z AUTO 01007KT 26/11 A3021 RMK AO1 T02560106






000
SXUS55 KMSO 291753
OSOMSO
MONTANA AWOS SUMMARY
NATIONAL WEATHER SERVICE MISSOULA MT
1153 AM MDT TUE JUL 29 2014

Montana AWOS Reports

ROUNDUP     |KRPX 291735Z AUTO 09007KT 40SM 28/05 A3013 RMK AO1 T02830050
MALTA       |KM75 291735Z AUTO 05006KT 40SM 30/12 A3015 RMK AO1 T03000122
PLAINS      |KS34 291555Z AUTO 00000KT 40SM 23/09 A3016 RMK AO1 T02280089
SCOBEY      |K9S2 291655Z AUTO 35006KT 24/11 A3021 RMK AO1 T02440111
PLAINS      |KS34 291655Z AUTO 00000KT 40SM 26/09 A3015 RMK AO1 T02610089






000
SXUS55 KMSO 291743
OSOMSO
MONTANA AWOS SUMMARY
NATIONAL WEATHER SERVICE MISSOULA MT
1143 AM MDT TUE JUL 29 2014

Montana AWOS Reports

LAUREL      |K6S8 291735Z AUTO 00000KT 40SM 27/11 A3019 RMK AO1 T02670106






000
SXUS55 KMSO 291733
OSOMSO
MONTANA AWOS SUMMARY
NATIONAL WEATHER SERVICE MISSOULA MT
1133 AM MDT TUE JUL 29 2014

Montana AWOS Reports

SCOBEY      |K9S2 291555Z AUTO 00000KT 22/14 A3021 RMK AO1 T02220144






000
SXUS55 KMSO 291724
OSOMSO
MONTANA AWOS SUMMARY
NATIONAL WEATHER SERVICE MISSOULA MT
1123 AM MDT TUE JUL 29 2014

Montana AWOS Reports

LAUREL      |K6S8 291715Z AUTO 00000KT 40SM 26/11 A3020 RMK AO1 T02560106
ROUNDUP     |KRPX 291715Z AUTO 11004KT 40SM 28/05 A3013 RMK AO1 T02830050






000
SXUS55 KMSO 291713
OSOMSO
MONTANA AWOS SUMMARY
NATIONAL WEATHER SERVICE MISSOULA MT
1113 AM MDT TUE JUL 29 2014

Montana AWOS Reports

SCOBEY      |K9S2 291455Z AUTO 00000KT 17/12 A3022 RMK AO1 T01720122
EKALAKA     |K97M 291555Z AUTO 11005KT 40SM 24/11 A3022 RMK AO1 T02440106






000
SXUS55 KMSO 291703
OSOMSO
MONTANA AWOS SUMMARY
NATIONAL WEATHER SERVICE MISSOULA MT
1103 AM MDT TUE JUL 29 2014

Montana AWOS Reports

EKALAKA     |K97M 291455Z AUTO 10007KT 40SM 23/11 A3022 RMK AO1 T02280111
LAUREL      |K6S8 291655Z AUTO 14004KT 40SM 26/10 A3019 RMK AO1 T02560100






000
SXUS55 KMSO 291644
OSOMSO
MONTANA AWOS SUMMARY
NATIONAL WEATHER SERVICE MISSOULA MT
1043 AM MDT TUE JUL 29 2014

Montana AWOS Reports

LAUREL      |K6S8 291635Z AUTO 00000KT 40SM 24/09 A3020 RMK AO1 T02440089
ROUNDUP     |KRPX 291635Z AUTO 10005KT 40SM 27/06 A3013 RMK AO1 T02670056
PLAINS      |KS34 291455Z AUTO 00000KT 40SM 18/09 A3017 RMK AO1 T01830094






000
SXUS55 KMSO 291634
OSOMSO
MONTANA AWOS SUMMARY
NATIONAL WEATHER SERVICE MISSOULA MT
1033 AM MDT TUE JUL 29 2014

Montana AWOS Reports

EKALAKA     |K97M 291355Z AUTO 10008KT 40SM 20/11 A3021 RMK AO1 T02000106






000
SXUS55 KMSO 291623
OSOMSO
MONTANA AWOS SUMMARY
NATIONAL WEATHER SERVICE MISSOULA MT
1023 AM MDT TUE JUL 29 2014

Montana AWOS Reports

LAUREL      |K6S8 291615Z AUTO 00000KT 40SM 24/09 A3020 RMK AO1 T02390089
MALTA       |KM75 291615Z AUTO 05006KT 40SM 27/12 A3016 RMK AO1 T02670122
ROUNDUP     |KRPX 291615Z AUTO 07006KT 40SM 26/06 A3013 RMK AO1 T02610056






000
SXUS55 KMSO 291604
OSOMSO
MONTANA AWOS SUMMARY
NATIONAL WEATHER SERVICE MISSOULA MT
1003 AM MDT TUE JUL 29 2014

Montana AWOS Reports

LAUREL      |K6S8 291555Z AUTO 00000KT 40SM 23/09 A3020 RMK AO1 T02330094
ROUNDUP     |KRPX 291555Z AUTO 05008KT 40SM 26/06 A3013 RMK AO1 T02610061
MALTA       |KM75 291555Z AUTO 05004KT 40SM 26/11 A3016 RMK AO1 T02560111
EKALAKA     |K97M 291255Z AUTO 11006KT 25SM 17/11 A3021 RMK AO1 T01670106






000
SXUS55 KMSO 291543
OSOMSO
MONTANA AWOS SUMMARY
NATIONAL WEATHER SERVICE MISSOULA MT
942 AM MDT TUE JUL 29 2014

Montana AWOS Reports

LAUREL      |K6S8 291535Z AUTO 00000KT 40SM 23/09 A3021 RMK AO1 T02280094
ROUNDUP     |KRPX 291535Z AUTO 05008KT 40SM 24/07 A3013 RMK AO1 T02390067
MALTA       |KM75 291535Z AUTO 05006KT 40SM 25/12 A3016 RMK AO1 T02500117






000
SXUS55 KMSO 291523
OSOMSO
MONTANA AWOS SUMMARY
NATIONAL WEATHER SERVICE MISSOULA MT
923 AM MDT TUE JUL 29 2014

Montana AWOS Reports

LAUREL      |K6S8 291515Z AUTO 00000KT 40SM 22/09 A3021 RMK AO1 T02220094
ROUNDUP     |KRPX 291515Z AUTO 04005KT 40SM 23/07 A3013 RMK AO1 T02330072






000
SXUS55 KMSO 291503
OSOMSO
MONTANA AWOS SUMMARY
NATIONAL WEATHER SERVICE MISSOULA MT
902 AM MDT TUE JUL 29 2014

Montana AWOS Reports

LAUREL      |K6S8 291455Z AUTO 02005KT 40SM 22/09 A3021 RMK AO1 T02170089
ROUNDUP     |KRPX 291455Z AUTO 04006KT 40SM 23/08 A3013 RMK AO1 T02280078






000
SXUS55 KMSO 291443
OSOMSO
MONTANA AWOS SUMMARY
NATIONAL WEATHER SERVICE MISSOULA MT
843 AM MDT TUE JUL 29 2014

Montana AWOS Reports

LAUREL      |K6S8 291435Z AUTO 05004KT 40SM 21/08 A3021 RMK AO1 T02110083
ROUNDUP     |KRPX 291435Z AUTO 03007KT 40SM 22/08 A3013 RMK AO1 T02220078
MALTA       |KM75 291435Z AUTO 05005KT 40SM 22/11 A3016 RMK AO1 T02170106






000
SXUS55 KMSO 291433
OSOMSO
MONTANA AWOS SUMMARY
NATIONAL WEATHER SERVICE MISSOULA MT
833 AM MDT TUE JUL 29 2014

Montana AWOS Reports

ROUNDUP     |KRPX 291415Z AUTO 07007KT 40SM 22/08 A3012 RMK AO1 T02170083
MALTA       |KM75 291415Z AUTO 05006KT 40SM 21/11 A3016 RMK AO1 T02060106
SCOBEY      |K9S2 291355Z AUTO 00000KT 13/11 A3021 RMK AO1 T01330111
PLAINS      |KS34 291255Z AUTO 00000KT 25SM 11/07 A3015 RMK AO1 T01060067
PLAINS      |KS34 291355Z AUTO 00000KT 40SM 14/08 A3016 RMK AO1 T01390078






000
SXUS55 KMSO 291423
OSOMSO
MONTANA AWOS SUMMARY
NATIONAL WEATHER SERVICE MISSOULA MT
822 AM MDT TUE JUL 29 2014

Montana AWOS Reports

LAUREL      |K6S8 291415Z AUTO 00000KT 40SM 20/08 A3021 RMK AO1 T02000083






000
SXUS55 KMSO 291413
OSOMSO
MONTANA AWOS SUMMARY
NATIONAL WEATHER SERVICE MISSOULA MT
812 AM MDT TUE JUL 29 2014

Montana AWOS Reports

ROUNDUP     |KRPX 291355Z AUTO 05005KT 40SM 21/09 A3012 RMK AO1 T02110089






000
SXUS55 KMSO 291403
OSOMSO
MONTANA AWOS SUMMARY
NATIONAL WEATHER SERVICE MISSOULA MT
803 AM MDT TUE JUL 29 2014

Montana AWOS Reports

LAUREL      |K6S8 291355Z AUTO 00000KT 40SM 20/08 A3020 RMK AO1 T02000078
MALTA       |KM75 291355Z AUTO 05006KT 40SM 20/10 A3016 RMK AO1 T02000100






000
SXUS55 KMSO 291344
OSOMSO
MONTANA AWOS SUMMARY
NATIONAL WEATHER SERVICE MISSOULA MT
743 AM MDT TUE JUL 29 2014

Montana AWOS Reports

LAUREL      |K6S8 291335Z AUTO 00000KT 40SM 20/07 A3020 RMK AO1 T02000072
ROUNDUP     |KRPX 291335Z AUTO 06005KT 40SM 20/08 A3013 RMK AO1 T02000083
MALTA       |KM75 291335Z AUTO 05005KT 40SM 19/10 A3016 RMK AO1 T01890100






000
SXUS55 KMSO 291333
OSOMSO
MONTANA AWOS SUMMARY
NATIONAL WEATHER SERVICE MISSOULA MT
732 AM MDT TUE JUL 29 2014

Montana AWOS Reports

ROUNDUP     |KRPX 291315Z AUTO 06006KT 40SM 19/09 A3012 RMK AO1 T01940089
MALTA       |KM75 291315Z AUTO 05004KT 40SM 17/10 A3016 RMK AO1 T01670100






000
SXUS55 KMSO 291323
OSOMSO
MONTANA AWOS SUMMARY
NATIONAL WEATHER SERVICE MISSOULA MT
723 AM MDT TUE JUL 29 2014

Montana AWOS Reports

LAUREL      |K6S8 291315Z AUTO 00000KT 40SM 19/07 A3020 RMK AO1 T01940072






000
SXUS55 KMSO 291303
OSOMSO
MONTANA AWOS SUMMARY
NATIONAL WEATHER SERVICE MISSOULA MT
702 AM MDT TUE JUL 29 2014

Montana AWOS Reports

LAUREL      |K6S8 291255Z AUTO 00000KT 40SM 19/08 A3020 RMK AO1 T01940083
ROUNDUP     |KRPX 291255Z AUTO 00000KT 40SM 19/09 A3012 RMK AO1 T01890089






000
SXUS55 KMSO 291243
OSOMSO
MONTANA AWOS SUMMARY
NATIONAL WEATHER SERVICE MISSOULA MT
642 AM MDT TUE JUL 29 2014

Montana AWOS Reports

LAUREL      |K6S8 291235Z AUTO 00000KT 40SM 19/06 A3019 RMK AO1 T01890061
MALTA       |KM75 291235Z AUTO 00000KT 40SM 14/08 A3015 RMK AO1 T01440083
ROUNDUP     |KRPX 291235Z AUTO 09008KT 40SM 19/09 A3010 RMK AO1 T01940089






000
SXUS55 KMSO 291223
OSOMSO
MONTANA AWOS SUMMARY
NATIONAL WEATHER SERVICE MISSOULA MT
623 AM MDT TUE JUL 29 2014

Montana AWOS Reports

LAUREL      |K6S8 291215Z AUTO 34004KT 40SM 19/06 A3018 RMK AO1 T01890061
ROUNDUP     |KRPX 291215Z AUTO 00000KT 40SM 19/07 A3014 RMK AO1 T01940072
MALTA       |KM75 291215Z AUTO 00000KT 40SM 14/08 A3015 RMK AO1 T01440083






000
SXUS55 KMSO 291214
OSOMSO
MONTANA AWOS SUMMARY
NATIONAL WEATHER SERVICE MISSOULA MT
613 AM MDT TUE JUL 29 2014

Montana AWOS Reports

PLAINS      |KS34 291055Z AUTO 00000KT 25SM 12/07 A3013 RMK AO1 T01220067
SCOBEY      |K9S2 291055Z AUTO 00000KT 09/07 A3019 RMK AO1 T00890067
EKALAKA     |K97M 291055Z AUTO 12007KT 40SM 14/09 A3021 RMK AO1 T01440094
PLAINS      |KS34 291155Z AUTO 00000KT 25SM 12/06 A3015 RMK AO1 T01170061






000
SXUS55 KMSO 291203
OSOMSO
MONTANA AWOS SUMMARY
NATIONAL WEATHER SERVICE MISSOULA MT
603 AM MDT TUE JUL 29 2014

Montana AWOS Reports

LAUREL      |K6S8 291155Z AUTO 32006KT 40SM 19/06 A3018 RMK AO1 T01890056
MALTA       |KM75 291155Z AUTO 00000KT 40SM 14/08 A3015 RMK AO1 T01390078






000
SXUS55 KMSO 291143
OSOMSO
MONTANA AWOS SUMMARY
NATIONAL WEATHER SERVICE MISSOULA MT
543 AM MDT TUE JUL 29 2014

Montana AWOS Reports

LAUREL      |K6S8 291135Z AUTO 31006KT 40SM 19/06 A3017 RMK AO1 T01940056
ROUNDUP     |KRPX 291135Z AUTO 36005KT 40SM 20/07 A3013 RMK AO1 T02000072






000
SXUS55 KMSO 291123
OSOMSO
MONTANA AWOS SUMMARY
NATIONAL WEATHER SERVICE MISSOULA MT
523 AM MDT TUE JUL 29 2014

Montana AWOS Reports

LAUREL      |K6S8 291115Z AUTO 32004KT 40SM 19/06 A3017 RMK AO1 T01890056
ROUNDUP     |KRPX 291115Z AUTO 01010G15KT 40SM 21/07 A3013 RMK AO1 T02110067
MALTA       |KM75 291115Z AUTO 00000KT 40SM 16/08 A3015 RMK AO1 T01560083






000
SXUS55 KMSO 291103
OSOMSO
MONTANA AWOS SUMMARY
NATIONAL WEATHER SERVICE MISSOULA MT
503 AM MDT TUE JUL 29 2014

Montana AWOS Reports

LAUREL      |K6S8 291055Z AUTO 00000KT 40SM 19/06 A3017 RMK AO1 T01940056
ROUNDUP     |KRPX 291055Z AUTO 34009G14KT 40SM 21/06 A3014 RMK AO1 T02110056
MALTA       |KM75 291055Z AUTO 00000KT 40SM 15/08 A3015 RMK AO1 T01500083






000
SXUS55 KMSO 291053
OSOMSO
MONTANA AWOS SUMMARY
NATIONAL WEATHER SERVICE MISSOULA MT
453 AM MDT TUE JUL 29 2014

Montana AWOS Reports

ROUNDUP     |KRPX 291035Z AUTO 34010G15KT 40SM 21/05 A3013 RMK AO1 T02110050






000
SXUS55 KMSO 291043
OSOMSO
MONTANA AWOS SUMMARY
NATIONAL WEATHER SERVICE MISSOULA MT
443 AM MDT TUE JUL 29 2014

Montana AWOS Reports

LAUREL      |K6S8 291035Z AUTO 00000KT 40SM 19/06 A3016 RMK AO1 T01940056






000
SXUS55 KMSO 291033
OSOMSO
MONTANA AWOS SUMMARY
NATIONAL WEATHER SERVICE MISSOULA MT
433 AM MDT TUE JUL 29 2014

Montana AWOS Reports

MALTA       |KM75 290755Z AUTO 00000KT 40SM 19/09 A3016 RMK AO1 T01890094
PLAINS      |KS34 290955Z AUTO 00000KT 40SM 13/07 A3012 RMK AO1 T01280072
MALTA       |KM75 290855Z AUTO 00000KT 40SM 17/10 A3015 RMK AO1 T01670100






000
SXUS55 KMSO 291023
OSOMSO
MONTANA AWOS SUMMARY
NATIONAL WEATHER SERVICE MISSOULA MT
423 AM MDT TUE JUL 29 2014

Montana AWOS Reports

LAUREL      |K6S8 291015Z AUTO 00000KT 40SM 20/06 A3016 RMK AO1 T02000061
ROUNDUP     |KRPX 291015Z AUTO 34009G13KT 40SM 21/05 A3013 RMK AO1 T02060050
SCOBEY      |K9S2 290955Z AUTO 00000KT 09/07 A3020 RMK AO1 T00890067
EKALAKA     |K97M 290955Z AUTO 12008KT 40SM 15/09 A3021 RMK AO1 T01500089






000
SXUS55 KMSO 291013
OSOMSO
MONTANA AWOS SUMMARY
NATIONAL WEATHER SERVICE MISSOULA MT
413 AM MDT TUE JUL 29 2014

Montana AWOS Reports

ROUNDUP     |KRPX 290955Z AUTO 34007KT 40SM 20/05 A3012 RMK AO1 T02000050






000
SXUS55 KMSO 291003
OSOMSO
MONTANA AWOS SUMMARY
NATIONAL WEATHER SERVICE MISSOULA MT
403 AM MDT TUE JUL 29 2014

Montana AWOS Reports

LAUREL      |K6S8 290955Z AUTO 00000KT 40SM 19/06 A3016 RMK AO1 T01940056
MALTA       |KM75 290955Z AUTO 00000KT 40SM 16/09 A3015 RMK AO1 T01560089






000
SXUS55 KMSO 290943
OSOMSO
MONTANA AWOS SUMMARY
NATIONAL WEATHER SERVICE MISSOULA MT
343 AM MDT TUE JUL 29 2014

Montana AWOS Reports

ROUNDUP     |KRPX 290935Z AUTO 34006KT 40SM 20/05 A3011 RMK AO1 T02000050
MALTA       |KM75 290935Z AUTO 00000KT 40SM 16/09 A3016 RMK AO1 T01610094






000
SXUS55 KMSO 290924
OSOMSO
MONTANA AWOS SUMMARY
NATIONAL WEATHER SERVICE MISSOULA MT
323 AM MDT TUE JUL 29 2014

Montana AWOS Reports

LAUREL      |K6S8 290915Z AUTO 34004KT 40SM 21/06 A3016 RMK AO1 T02060056
ROUNDUP     |KRPX 290915Z AUTO 34007KT 40SM 19/05 A3011 RMK AO1 T01940050
MALTA       |KM75 290915Z AUTO 00000KT 40SM 16/10 A3016 RMK AO1 T01610100






000
SXUS55 KMSO 290914
OSOMSO
MONTANA AWOS SUMMARY
NATIONAL WEATHER SERVICE MISSOULA MT
313 AM MDT TUE JUL 29 2014

Montana AWOS Reports

EKALAKA     |K97M 290855Z AUTO 12008KT 40SM 16/09 A3021 RMK AO1 T01560094
MALTA       |KM75 290655Z AUTO 05005KT 40SM 19/10 A3016 RMK AO1 T01940100






000
SXUS55 KMSO 290903
OSOMSO
MONTANA AWOS SUMMARY
NATIONAL WEATHER SERVICE MISSOULA MT
303 AM MDT TUE JUL 29 2014

Montana AWOS Reports

LAUREL      |K6S8 290855Z AUTO 34004KT 40SM 21/06 A3017 RMK AO1 T02110056
PLAINS      |KS34 290855Z AUTO 00000KT 25SM 14/07 A3012 RMK AO1 T01390072






000
SXUS55 KMSO 290843
OSOMSO
MONTANA AWOS SUMMARY
NATIONAL WEATHER SERVICE MISSOULA MT
243 AM MDT TUE JUL 29 2014

Montana AWOS Reports

LAUREL      |K6S8 290835Z AUTO 00000KT 40SM 21/06 A3016 RMK AO1 T02110056
ROUNDUP     |KRPX 290835Z AUTO 00000KT 40SM 19/05 A3011 RMK AO1 T01940050
MALTA       |KM75 290835Z AUTO 00000KT 40SM 17/09 A3016 RMK AO1 T01670089






000
SXUS55 KMSO 290823
OSOMSO
MONTANA AWOS SUMMARY
NATIONAL WEATHER SERVICE MISSOULA MT
223 AM MDT TUE JUL 29 2014

Montana AWOS Reports

LAUREL      |K6S8 290815Z AUTO 00000KT 40SM 21/06 A3016 RMK AO1 T02110056
ROUNDUP     |KRPX 290815Z AUTO 00000KT 40SM 21/05 A3011 RMK AO1 T02060050
MALTA       |KM75 290815Z AUTO 00000KT 40SM 18/10 A3016 RMK AO1 T01780100






000
SXUS55 KMSO 290813
OSOMSO
MONTANA AWOS SUMMARY
NATIONAL WEATHER SERVICE MISSOULA MT
212 AM MDT TUE JUL 29 2014

Montana AWOS Reports

EKALAKA     |K97M 290755Z AUTO 12009KT 40SM 17/09 A3022 RMK AO1 T01670094
PLAINS      |KS34 290755Z AUTO 00000KT 25SM 16/08 A3012 RMK AO1 T01560078






000
SXUS55 KMSO 290803
OSOMSO
MONTANA AWOS SUMMARY
NATIONAL WEATHER SERVICE MISSOULA MT
203 AM MDT TUE JUL 29 2014

Montana AWOS Reports

LAUREL      |K6S8 290755Z AUTO 00000KT 40SM 22/06 A3016 RMK AO1 T02220061
ROUNDUP     |KRPX 290755Z AUTO 00000KT 40SM 21/05 A3011 RMK AO1 T02110050
MALTA       |KM75 290755Z AUTO 00000KT 40SM 19/09 A3016 RMK AO1 T01890094
SCOBEY      |K9S2 290755Z AUTO 00000KT 11/08 A3020 RMK AO1 T01110083






000
SXUS55 KMSO 290744
OSOMSO
MONTANA AWOS SUMMARY
NATIONAL WEATHER SERVICE MISSOULA MT
143 AM MDT TUE JUL 29 2014

Montana AWOS Reports

LAUREL      |K6S8 290735Z AUTO 01004KT 40SM 22/06 A3016 RMK AO1 T02220061
ROUNDUP     |KRPX 290735Z AUTO 00000KT 40SM 22/04 A3011 RMK AO1 T02170044
MALTA       |KM75 290735Z AUTO 05004KT 40SM 19/10 A3016 RMK AO1 T01940100






000
SXUS55 KMSO 290723
OSOMSO
MONTANA AWOS SUMMARY
NATIONAL WEATHER SERVICE MISSOULA MT
123 AM MDT TUE JUL 29 2014

Montana AWOS Reports

LAUREL      |K6S8 290715Z AUTO 36005KT 40SM 23/07 A3017 RMK AO1 T02280067
ROUNDUP     |KRPX 290715Z AUTO 00000KT 40SM 22/05 A3011 RMK AO1 T02220050






000
SXUS55 KMSO 290713
OSOMSO
MONTANA AWOS SUMMARY
NATIONAL WEATHER SERVICE MISSOULA MT
113 AM MDT TUE JUL 29 2014

Montana AWOS Reports

ROUNDUP     |KRPX 290655Z AUTO 06004KT 40SM 23/05 A3011 RMK AO1 T02280050
PLAINS      |KS34 290655Z AUTO 00000KT 25SM 17/08 A3012 RMK AO1 T01720078
SCOBEY      |K9S2 290655Z AUTO 00000KT 13/09 A3021 RMK AO1 T01330089
EKALAKA     |K97M 290655Z AUTO 12009KT 40SM 17/09 A3022 RMK AO1 T01670094






000
SXUS55 KMSO 290703
OSOMSO
MONTANA AWOS SUMMARY
NATIONAL WEATHER SERVICE MISSOULA MT
103 AM MDT TUE JUL 29 2014

Montana AWOS Reports

LAUREL      |K6S8 290655Z AUTO 03004KT 40SM 23/06 A3017 RMK AO1 T02280061






000
SXUS55 KMSO 290643
OSOMSO
MONTANA AWOS SUMMARY
NATIONAL WEATHER SERVICE MISSOULA MT
1243 AM MDT TUE JUL 29 2014

Montana AWOS Reports

LAUREL      |K6S8 290635Z AUTO 00000KT 40SM 24/07 A3017 RMK AO1 T02390067
ROUNDUP     |KRPX 290635Z AUTO 05005KT 40SM 23/04 A3012 RMK AO1 T02280044






000
SXUS55 KMSO 290623
OSOMSO
MONTANA AWOS SUMMARY
NATIONAL WEATHER SERVICE MISSOULA MT
1223 AM MDT TUE JUL 29 2014

Montana AWOS Reports

MALTA       |KM75 290615Z AUTO 00000KT 40SM 19/11 A3016 RMK AO1 T01940106
LAUREL      |K6S8 290615Z AUTO 04007KT 40SM 24/06 A3017 RMK AO1 T02390061
ROUNDUP     |KRPX 290615Z AUTO 00000KT 40SM 23/04 A3012 RMK AO1 T02330044






000
SXUS55 KMSO 290613
OSOMSO
MONTANA AWOS SUMMARY
NATIONAL WEATHER SERVICE MISSOULA MT
1212 AM MDT TUE JUL 29 2014

Montana AWOS Reports

SCOBEY      |K9S2 290555Z AUTO 00000KT 14/10 A3021 RMK AO1 T01390100






000
SXUS55 KMSO 290603
OSOMSO
MONTANA AWOS SUMMARY
NATIONAL WEATHER SERVICE MISSOULA MT
1203 AM MDT TUE JUL 29 2014

Montana AWOS Reports

LAUREL      |K6S8 290555Z AUTO 02005KT 40SM 24/07 A3017 RMK AO1 T02440067
EKALAKA     |K97M 290555Z AUTO 11008KT 40SM 17/10 A3022 RMK AO1 T01720100
PLAINS      |KS34 290555Z AUTO 00000KT 40SM 18/08 A3011 RMK AO1 T01830083






000
SXUS55 KMSO 290544
OSOMSO
MONTANA AWOS SUMMARY
NATIONAL WEATHER SERVICE MISSOULA MT
1143 PM MDT MON JUL 28 2014

Montana AWOS Reports

LAUREL      |K6S8 290535Z AUTO 02006KT 40SM 25/06 A3017 RMK AO1 T02500061
ROUNDUP     |KRPX 290535Z AUTO 08006KT 40SM 24/04 A3011 RMK AO1 T02440039






000
SXUS55 KMSO 290533
OSOMSO
MONTANA AWOS SUMMARY
NATIONAL WEATHER SERVICE MISSOULA MT
1132 PM MDT MON JUL 28 2014

Montana AWOS Reports

LAUREL      |K6S8 290515Z AUTO 36006KT 40SM 25/06 A3017 RMK AO1 T02500061






000
SXUS55 KMSO 290523
OSOMSO
MONTANA AWOS SUMMARY
NATIONAL WEATHER SERVICE MISSOULA MT
1123 PM MDT MON JUL 28 2014

Montana AWOS Reports

ROUNDUP     |KRPX 290515Z AUTO 07008KT 40SM 24/04 A3011 RMK AO1 T02440039






000
SXUS55 KMSO 290513
OSOMSO
MONTANA AWOS SUMMARY
NATIONAL WEATHER SERVICE MISSOULA MT
1113 PM MDT MON JUL 28 2014

Montana AWOS Reports

MALTA       |KM75 290455Z AUTO 00000KT 40SM 21/11 A3015 RMK AO1 T02060111






000
SXUS55 KMSO 290503
OSOMSO
MONTANA AWOS SUMMARY
NATIONAL WEATHER SERVICE MISSOULA MT
1103 PM MDT MON JUL 28 2014

Montana AWOS Reports

LAUREL      |K6S8 290455Z AUTO 34004KT 40SM 26/07 A3017 RMK AO1 T02560072
ROUNDUP     |KRPX 290455Z AUTO 08004KT 40SM 24/04 A3011 RMK AO1 T02440039
SCOBEY      |K9S2 290455Z AUTO 00000KT 15/10 A3021 RMK AO1 T01500100
EKALAKA     |K97M 290455Z AUTO 12008KT 40SM 18/10 A3022 RMK AO1 T01780100






000
SXUS55 KMSO 290453
OSOMSO
MONTANA AWOS SUMMARY
NATIONAL WEATHER SERVICE MISSOULA MT
1053 PM MDT MON JUL 28 2014

Montana AWOS Reports

LAUREL      |K6S8 290435Z AUTO 06006KT 40SM 26/07 A3017 RMK AO1 T02610067






000
SXUS55 KMSO 290443
OSOMSO
MONTANA AWOS SUMMARY
NATIONAL WEATHER SERVICE MISSOULA MT
1043 PM MDT MON JUL 28 2014

Montana AWOS Reports

ROUNDUP     |KRPX 290435Z AUTO 07007KT 40SM 25/04 A3011 RMK AO1 T02500044
MALTA       |KM75 290435Z AUTO 00000KT 40SM 21/11 A3014 RMK AO1 T02110111






000
SXUS55 KMSO 290424
OSOMSO
MONTANA AWOS SUMMARY
NATIONAL WEATHER SERVICE MISSOULA MT
1023 PM MDT MON JUL 28 2014

Montana AWOS Reports

ROUNDUP     |KRPX 290415Z AUTO 07006KT 40SM 26/05 A3011 RMK AO1 T02560050
LAUREL      |K6S8 290415Z AUTO 01006KT 40SM 26/07 A3017 RMK AO1 T02610067






000
SXUS55 KMSO 290404
OSOMSO
MONTANA AWOS SUMMARY
NATIONAL WEATHER SERVICE MISSOULA MT
1004 PM MDT MON JUL 28 2014

Montana AWOS Reports

LAUREL      |K6S8 290355Z AUTO VRB05KT 40SM 26/07 A3016 RMK AO1 T02610067
SCOBEY      |K9S2 290355Z AUTO 00000KT 17/09 A3022 RMK AO1 T01670094
EKALAKA     |K97M 290355Z AUTO 11007KT 40SM 18/11 A3023 RMK AO1 T01830106
PLAINS      |KS34 290355Z AUTO 00000KT 40SM 24/08 A3008 RMK AO1 T02440078






000
SXUS55 KMSO 290353
OSOMSO
MONTANA AWOS SUMMARY
NATIONAL WEATHER SERVICE MISSOULA MT
953 PM MDT MON JUL 28 2014

Montana AWOS Reports

LAUREL      |K6S8 290335Z AUTO 01005KT 40SM 27/07 A3016 RMK AO1 T02670072






000
SXUS55 KMSO 290343
OSOMSO
MONTANA AWOS SUMMARY
NATIONAL WEATHER SERVICE MISSOULA MT
943 PM MDT MON JUL 28 2014

Montana AWOS Reports

ROUNDUP     |KRPX 290335Z AUTO 07009G13KT 40SM 26/04 A3010 RMK AO1 T02610039






000
SXUS55 KMSO 290323
OSOMSO
MONTANA AWOS SUMMARY
NATIONAL WEATHER SERVICE MISSOULA MT
923 PM MDT MON JUL 28 2014

Montana AWOS Reports

LAUREL      |K6S8 290315Z AUTO 34004KT 40SM 27/07 A3016 RMK AO1 T02670072






000
SXUS55 KMSO 290313
OSOMSO
MONTANA AWOS SUMMARY
NATIONAL WEATHER SERVICE MISSOULA MT
913 PM MDT MON JUL 28 2014

Montana AWOS Reports

MALTA       |KM75 290255Z AUTO 05004KT 40SM 24/08 A3013 RMK AO1 T02440083
EKALAKA     |K97M 290255Z AUTO 10006KT 40SM 20/11 A3022 RMK AO1 T02000106






000
SXUS55 KMSO 290303
OSOMSO
MONTANA AWOS SUMMARY
NATIONAL WEATHER SERVICE MISSOULA MT
903 PM MDT MON JUL 28 2014

Montana AWOS Reports

ROUNDUP     |KRPX 290255Z AUTO 00000KT 40SM 27/05 A3009 RMK AO1 T02720050






000
SXUS55 KMSO 290244
OSOMSO
MONTANA AWOS SUMMARY
NATIONAL WEATHER SERVICE MISSOULA MT
843 PM MDT MON JUL 28 2014

Montana AWOS Reports

LAUREL      |K6S8 290235Z AUTO 02009G15KT 40SM 28/07 A3015 RMK AO1 T02780072






000
SXUS55 KMSO 290223
OSOMSO
MONTANA AWOS SUMMARY
NATIONAL WEATHER SERVICE MISSOULA MT
823 PM MDT MON JUL 28 2014

Montana AWOS Reports

LAUREL      |K6S8 290215Z AUTO 01007KT 40SM 28/08 A3014 RMK AO1 T02830078
ROUNDUP     |KRPX 290215Z AUTO 00000KT 40SM 29/06 A3008 RMK AO1 T02890056






000
SXUS55 KMSO 290213
OSOMSO
MONTANA AWOS SUMMARY
NATIONAL WEATHER SERVICE MISSOULA MT
813 PM MDT MON JUL 28 2014

Montana AWOS Reports

MALTA       |KM75 290155Z AUTO 05004KT 40SM 29/09 A3012 RMK AO1 T02890094






000
SXUS55 KMSO 290203
OSOMSO
MONTANA AWOS SUMMARY
NATIONAL WEATHER SERVICE MISSOULA MT
803 PM MDT MON JUL 28 2014

Montana AWOS Reports

LAUREL      |K6S8 290155Z AUTO 02007KT 40SM 28/08 A3014 RMK AO1 T02830078
ROUNDUP     |KRPX 290155Z AUTO 09004KT 40SM 29/06 A3008 RMK AO1 T02940056
SCOBEY      |K9S2 290155Z AUTO 00000KT 23/11 A3021 RMK AO1 T02330111
PLAINS      |KS34 290155Z AUTO 00000KT 40SM 36/07 A3005 RMK AO1 T03560067






000
SXUS55 KMSO 290143
OSOMSO
MONTANA AWOS SUMMARY
NATIONAL WEATHER SERVICE MISSOULA MT
743 PM MDT MON JUL 28 2014

Montana AWOS Reports

LAUREL      |K6S8 290135Z AUTO 02008KT 40SM 29/08 A3014 RMK AO1 T02890078
ROUNDUP     |KRPX 290135Z AUTO 09006KT 40SM 30/06 A3008 RMK AO1 T03000056
MALTA       |KM75 290135Z AUTO 05004KT 40SM 30/09 A3012 RMK AO1 T03000094
MALTA       |KM75 290055Z AUTO 05009KT 40SM 32/09 A3012 RMK AO1 T03170089






000
SXUS55 KMSO 290133
OSOMSO
MONTANA AWOS SUMMARY
NATIONAL WEATHER SERVICE MISSOULA MT
733 PM MDT MON JUL 28 2014

Montana AWOS Reports

LAUREL      |K6S8 290115Z AUTO 01008KT 40SM 29/08 A3014 RMK AO1 T02940078






000
SXUS55 KMSO 290123
OSOMSO
MONTANA AWOS SUMMARY
NATIONAL WEATHER SERVICE MISSOULA MT
723 PM MDT MON JUL 28 2014

Montana AWOS Reports

ROUNDUP     |KRPX 290115Z AUTO 08005KT 40SM 30/06 A3008 RMK AO1 T03000056






000
SXUS55 KMSO 290103
OSOMSO
MONTANA AWOS SUMMARY
NATIONAL WEATHER SERVICE MISSOULA MT
703 PM MDT MON JUL 28 2014

Montana AWOS Reports

MALTA       |KM75 290055Z AUTO 05009KT 40SM 32/09 A3012 RMK AO1 T03170089
EKALAKA     |K97M 290055Z AUTO 08010G16KT 40SM 26/11 A3019 RMK AO1 T02610106
LAUREL      |K6S8 290055Z AUTO 01007KT 40SM 30/08 A3013 RMK AO1 T03000083
ROUNDUP     |KRPX 290055Z AUTO 07007KT 40SM 31/06 A3008 RMK AO1 T03060056
SCOBEY      |K9S2 290055Z AUTO 35005KT 26/11 A3021 RMK AO1 T02560111
PLAINS      |KS34 290055Z AUTO 00000KT 15SM 36/07 A3005 RMK AO1 T03560067






000
SXUS55 KMSO 290043
OSOMSO
MONTANA AWOS SUMMARY
NATIONAL WEATHER SERVICE MISSOULA MT
643 PM MDT MON JUL 28 2014

Montana AWOS Reports

LAUREL      |K6S8 290035Z AUTO 02008KT 40SM 31/08 A3013 RMK AO1 T03060083






000
SXUS55 KMSO 290024
OSOMSO
MONTANA AWOS SUMMARY
NATIONAL WEATHER SERVICE MISSOULA MT
623 PM MDT MON JUL 28 2014

Montana AWOS Reports

LAUREL      |K6S8 290015Z AUTO 01006KT 40SM 31/08 A3014 RMK AO1 T03110083






000
SXUS55 KMSO 290014
OSOMSO
MONTANA AWOS SUMMARY
NATIONAL WEATHER SERVICE MISSOULA MT
613 PM MDT MON JUL 28 2014

Montana AWOS Reports

PLAINS      |KS34 282355Z AUTO 00000KT 40SM 37/07 A3006 RMK AO1 T03670067






000
SXUS55 KMSO 290003
OSOMSO
MONTANA AWOS SUMMARY
NATIONAL WEATHER SERVICE MISSOULA MT
603 PM MDT MON JUL 28 2014

Montana AWOS Reports

ROUNDUP     |KRPX 282355Z AUTO 07007KT 40SM 32/05 A3008 RMK AO1 T03170050
SCOBEY      |K9S2 282355Z AUTO 34006KT 27/11 A3021 RMK AO1 T02670106
LAUREL      |K6S8 282355Z AUTO 01009KT 40SM 31/08 A3014 RMK AO1 T03110083
EKALAKA     |K97M 282355Z AUTO 00000KT 40SM 28/11 A3020 RMK AO1 T02830106






000
SXUS55 KMSO 282343
OSOMSO
MONTANA AWOS SUMMARY
NATIONAL WEATHER SERVICE MISSOULA MT
543 PM MDT MON JUL 28 2014

Montana AWOS Reports

LAUREL      |K6S8 282335Z AUTO 04007KT 40SM 32/08 A3014 RMK AO1 T03220083
ROUNDUP     |KRPX 282335Z AUTO 05011KT 40SM 32/06 A3009 RMK AO1 T03170061






000
SXUS55 KMSO 282333
OSOMSO
MONTANA AWOS SUMMARY
NATIONAL WEATHER SERVICE MISSOULA MT
533 PM MDT MON JUL 28 2014

Montana AWOS Reports

LAUREL      |K6S8 282315Z AUTO 02007KT 40SM 32/07 A3015 RMK AO1 T03220072






000
SXUS55 KMSO 282323
OSOMSO
MONTANA AWOS SUMMARY
NATIONAL WEATHER SERVICE MISSOULA MT
522 PM MDT MON JUL 28 2014

Montana AWOS Reports

ROUNDUP     |KRPX 282315Z AUTO 04009G15KT 40SM 32/06 A3009 RMK AO1 T03170061
MALTA       |KM75 282315Z AUTO 05007KT 40SM 33/09 A3013 RMK AO1 T03280089






000
SXUS55 KMSO 282313
OSOMSO
MONTANA AWOS SUMMARY
NATIONAL WEATHER SERVICE MISSOULA MT
513 PM MDT MON JUL 28 2014

Montana AWOS Reports

SCOBEY      |K9S2 282255Z AUTO VRB05KT 27/09 A3022 RMK AO1 T02670094
MALTA       |KM75 282255Z AUTO 05006KT 40SM 33/09 A3013 RMK AO1 T03330094
EKALAKA     |K97M 282255Z AUTO 13005KT 40SM 28/10 A3021 RMK AO1 T02830100
PLAINS      |KS34 282255Z AUTO 00000KT 40SM 34/07 A3008 RMK AO1 T03390072






000
SXUS55 KMSO 282303
OSOMSO
MONTANA AWOS SUMMARY
NATIONAL WEATHER SERVICE MISSOULA MT
503 PM MDT MON JUL 28 2014

Montana AWOS Reports

ROUNDUP     |KRPX 282255Z AUTO 06009G19KT 40SM 32/06 A3009 RMK AO1 T03220056
LAUREL      |K6S8 282255Z AUTO 01007KT 40SM 33/07 A3015 RMK AO1 T03280072






000
SXUS55 KMSO 282253
OSOMSO
MONTANA AWOS SUMMARY
NATIONAL WEATHER SERVICE MISSOULA MT
453 PM MDT MON JUL 28 2014

Montana AWOS Reports

MALTA       |KM75 282055Z AUTO 06006KT 40SM 33/09 A3015 RMK AO1 T03280094






000
SXUS55 KMSO 282243
OSOMSO
MONTANA AWOS SUMMARY
NATIONAL WEATHER SERVICE MISSOULA MT
443 PM MDT MON JUL 28 2014

Montana AWOS Reports

LAUREL      |K6S8 282235Z AUTO 03006KT 40SM 33/08 A3015 RMK AO1 T03280078






000
SXUS55 KMSO 282224
OSOMSO
MONTANA AWOS SUMMARY
NATIONAL WEATHER SERVICE MISSOULA MT
423 PM MDT MON JUL 28 2014

Montana AWOS Reports

ROUNDUP     |KRPX 282215Z AUTO 03004KT 40SM 32/06 A3010 RMK AO1 T03170061
LAUREL      |K6S8 282215Z AUTO 04008KT 40SM 33/08 A3015 RMK AO1 T03330083






000
SXUS55 KMSO 282213
OSOMSO
MONTANA AWOS SUMMARY
NATIONAL WEATHER SERVICE MISSOULA MT
413 PM MDT MON JUL 28 2014

Montana AWOS Reports

SCOBEY      |K9S2 282155Z AUTO 01009KT 27/10 A3023 RMK AO1 T02720100
EKALAKA     |K97M 282155Z AUTO 08007KT 40SM 29/11 A3022 RMK AO1 T02890106
PLAINS      |KS34 282155Z AUTO 00000KT 40SM 34/08 A3010 RMK AO1 T03440078
MALTA       |KM75 281955Z AUTO 05006KT 40SM 32/11 A3016 RMK AO1 T03170106






000
SXUS55 KMSO 282203
OSOMSO
MONTANA AWOS SUMMARY
NATIONAL WEATHER SERVICE MISSOULA MT
403 PM MDT MON JUL 28 2014

Montana AWOS Reports

LAUREL      |K6S8 282155Z AUTO 05006KT 40SM 33/08 A3016 RMK AO1 T03280078






000
SXUS55 KMSO 282143
OSOMSO
MONTANA AWOS SUMMARY
NATIONAL WEATHER SERVICE MISSOULA MT
342 PM MDT MON JUL 28 2014

Montana AWOS Reports

LAUREL      |K6S8 282135Z AUTO 04009KT 40SM 33/08 A3016 RMK AO1 T03280078
ROUNDUP     |KRPX 282135Z AUTO 08009KT 40SM 32/07 A3010 RMK AO1 T03220067






000
SXUS55 KMSO 282123
OSOMSO
MONTANA AWOS SUMMARY
NATIONAL WEATHER SERVICE MISSOULA MT
323 PM MDT MON JUL 28 2014

Montana AWOS Reports

MALTA       |KM75 282115Z AUTO 06007KT 40SM 33/09 A3014 RMK AO1 T03280094
LAUREL      |K6S8 282115Z AUTO 05009KT 40SM 33/08 A3016 RMK AO1 T03280078
ROUNDUP     |KRPX 282115Z AUTO 05004KT 40SM 32/05 A3011 RMK AO1 T03170050






000
SXUS55 KMSO 282113
OSOMSO
MONTANA AWOS SUMMARY
NATIONAL WEATHER SERVICE MISSOULA MT
312 PM MDT MON JUL 28 2014

Montana AWOS Reports

SCOBEY      |K9S2 282055Z AUTO 00000KT 27/10 A3024 RMK AO1 T02670100
PLAINS      |KS34 282055Z AUTO 00000KT 40SM 33/07 A3011 RMK AO1 T03330072
EKALAKA     |K97M 282055Z AUTO 00000KT 40SM 28/07 A3023 RMK AO1 T02780072






000
SXUS55 KMSO 282103
OSOMSO
MONTANA AWOS SUMMARY
NATIONAL WEATHER SERVICE MISSOULA MT
303 PM MDT MON JUL 28 2014

Montana AWOS Reports

ROUNDUP     |KRPX 282055Z AUTO 03008KT 40SM 32/05 A3011 RMK AO1 T03170050
LAUREL      |K6S8 282055Z AUTO 05008KT 40SM 32/08 A3017 RMK AO1 T03220078






000
SXUS55 KMSO 282054
OSOMSO
MONTANA AWOS SUMMARY
NATIONAL WEATHER SERVICE MISSOULA MT
253 PM MDT MON JUL 28 2014

Montana AWOS Reports

MALTA       |KM75 281855Z AUTO 06007KT 40SM 31/09 A3018 RMK AO1 T03060094






000
SXUS55 KMSO 282044
OSOMSO
MONTANA AWOS SUMMARY
NATIONAL WEATHER SERVICE MISSOULA MT
243 PM MDT MON JUL 28 2014

Montana AWOS Reports

LAUREL      |K6S8 282035Z AUTO 05009G14KT 40SM 32/07 A3017 RMK AO1 T03170072
ROUNDUP     |KRPX 282035Z AUTO 00000KT 40SM 32/06 A3012 RMK AO1 T03170061






000
SXUS55 KMSO 282033
OSOMSO
MONTANA AWOS SUMMARY
NATIONAL WEATHER SERVICE MISSOULA MT
233 PM MDT MON JUL 28 2014

Montana AWOS Reports

LAUREL      |K6S8 282015Z AUTO 05006KT 40SM 31/09 A3018 RMK AO1 T03060094
MALTA       |KM75 281755Z AUTO 09006KT 40SM 29/12 A3019 RMK AO1 T02890122






000
SXUS55 KMSO 282023
OSOMSO
MONTANA AWOS SUMMARY
NATIONAL WEATHER SERVICE MISSOULA MT
223 PM MDT MON JUL 28 2014

Montana AWOS Reports

MALTA       |KM75 281655Z AUTO 09007KT 40SM 27/12 A3020 RMK AO1 T02670122
ROUNDUP     |KRPX 282015Z AUTO 00000KT 40SM 31/06 A3012 RMK AO1 T03110061
MALTA       |KM75 282015Z AUTO 05006KT 40SM 32/11 A3016 RMK AO1 T03220106






000
SXUS55 KMSO 282014
OSOMSO
MONTANA AWOS SUMMARY
NATIONAL WEATHER SERVICE MISSOULA MT
213 PM MDT MON JUL 28 2014

Montana AWOS Reports

MALTA       |KM75 281155Z AUTO 00000KT 40SM 11/08 A3022 RMK AO1 T01060078
MALTA       |KM75 281455Z AUTO 09005KT 40SM 21/13 A3023 RMK AO1 T02060128






000
SXUS55 KMSO 282003
OSOMSO
MONTANA AWOS SUMMARY
NATIONAL WEATHER SERVICE MISSOULA MT
202 PM MDT MON JUL 28 2014

Montana AWOS Reports

ROUNDUP     |KRPX 281955Z AUTO 08008KT 40SM 31/06 A3012 RMK AO1 T03060056
SCOBEY      |K9S2 281955Z AUTO 00000KT 26/07 A3025 RMK AO1 T02610072
EKALAKA     |K97M 281955Z AUTO 00000KT 40SM 28/09 A3024 RMK AO1 T02780089
PLAINS      |KS34 281955Z AUTO 00000KT 15SM 32/08 A3013 RMK AO1 T03220083
LAUREL      |K6S8 281955Z AUTO 36007KT 40SM 30/09 A3019 RMK AO1 T03000089






000
SXUS55 KMSO 281944
OSOMSO
MONTANA AWOS SUMMARY
NATIONAL WEATHER SERVICE MISSOULA MT
143 PM MDT MON JUL 28 2014

Montana AWOS Reports

ROUNDUP     |KRPX 281935Z AUTO 06008KT 40SM 31/07 A3012 RMK AO1 T03060067
LAUREL      |K6S8 281935Z AUTO 05004KT 40SM 29/08 A3020 RMK AO1 T02890078






000
SXUS55 KMSO 281924
OSOMSO
MONTANA AWOS SUMMARY
NATIONAL WEATHER SERVICE MISSOULA MT
123 PM MDT MON JUL 28 2014

Montana AWOS Reports

ROUNDUP     |KRPX 281915Z AUTO 04004KT 40SM 31/07 A3013 RMK AO1 T03060067
LAUREL      |K6S8 281915Z AUTO 00000KT 40SM 28/08 A3020 RMK AO1 T02830083






000
SXUS55 KMSO 281904
OSOMSO
MONTANA AWOS SUMMARY
NATIONAL WEATHER SERVICE MISSOULA MT
103 PM MDT MON JUL 28 2014

Montana AWOS Reports

LAUREL      |K6S8 281855Z AUTO 00000KT 40SM 27/08 A3021 RMK AO1 T02720083
PLAINS      |KS34 281855Z AUTO 00000KT 15SM 29/08 A3015 RMK AO1 T02940083






000
SXUS55 KMSO 281843
OSOMSO
MONTANA AWOS SUMMARY
NATIONAL WEATHER SERVICE MISSOULA MT
1243 PM MDT MON JUL 28 2014

Montana AWOS Reports

ROUNDUP     |KRPX 281835Z AUTO 05006KT 40SM 30/07 A3014 RMK AO1 T03000072
LAUREL      |K6S8 281835Z AUTO 04004KT 40SM 26/07 A3022 RMK AO1 T02610072






000
SXUS55 KMSO 281834
OSOMSO
MONTANA AWOS SUMMARY
NATIONAL WEATHER SERVICE MISSOULA MT
1233 PM MDT MON JUL 28 2014

Montana AWOS Reports

SCOBEY      |K9S2 281755Z AUTO 00000KT 26/12 A3026 RMK AO1 T02560117






000
SXUS55 KMSO 281823
OSOMSO
MONTANA AWOS SUMMARY
NATIONAL WEATHER SERVICE MISSOULA MT
1223 PM MDT MON JUL 28 2014

Montana AWOS Reports

ROUNDUP     |KRPX 281815Z AUTO 00000KT 40SM 29/07 A3015 RMK AO1 T02940067
MALTA       |KM75 281815Z AUTO 09008KT 40SM 30/12 A3019 RMK AO1 T03000122
LAUREL      |K6S8 281815Z AUTO 09005KT 40SM 26/08 A3023 RMK AO1 T02610083
EKALAKA     |K97M 281755Z AUTO 00000KT 40SM 26/09 A3027 RMK AO1 T02610094
PLAINS      |KS34 281755Z AUTO 00000KT 40SM 28/08 A3017 RMK AO1 T02830083






000
SXUS55 KMSO 281813
OSOMSO
MONTANA AWOS SUMMARY
NATIONAL WEATHER SERVICE MISSOULA MT
1213 PM MDT MON JUL 28 2014

Montana AWOS Reports

SCOBEY      |K9S2 281555Z AUTO 00000KT 20/12 A3028 RMK AO1 T02000122






000
SXUS55 KMSO 281803
OSOMSO
MONTANA AWOS SUMMARY
NATIONAL WEATHER SERVICE MISSOULA MT
1203 PM MDT MON JUL 28 2014

Montana AWOS Reports

ROUNDUP     |KRPX 281755Z AUTO 10006KT 40SM 28/08 A3015 RMK AO1 T02830078
LAUREL      |K6S8 281755Z AUTO 04005KT 40SM 25/08 A3023 RMK AO1 T02500078






000
SXUS55 KMSO 281743
OSOMSO
MONTANA AWOS SUMMARY
NATIONAL WEATHER SERVICE MISSOULA MT
1143 AM MDT MON JUL 28 2014

Montana AWOS Reports

ROUNDUP     |KRPX 281735Z AUTO 10005KT 40SM 27/07 A3016 RMK AO1 T02720072
MALTA       |KM75 281735Z AUTO 09006KT 40SM 28/12 A3020 RMK AO1 T02830117
LAUREL      |K6S8 281735Z AUTO 06005KT 40SM 25/08 A3024 RMK AO1 T02500078
SCOBEY      |K9S2 281455Z AUTO 00000KT 18/12 A3028 RMK AO1 T01780122
EKALAKA     |K97M 281655Z AUTO 08004KT 40SM 25/09 A3028 RMK AO1 T02500094






000
SXUS55 KMSO 281723
OSOMSO
MONTANA AWOS SUMMARY
NATIONAL WEATHER SERVICE MISSOULA MT
1123 AM MDT MON JUL 28 2014

Montana AWOS Reports

EKALAKA     |K97M 281555Z AUTO 10008KT 40SM 22/12 A3028 RMK AO1 T02220117
PLAINS      |KS34 281455Z AUTO 00000KT 40SM 18/08 A3021 RMK AO1 T01780078
ROUNDUP     |KRPX 281715Z AUTO 05008KT 40SM 27/08 A3016 RMK AO1 T02720078
MALTA       |KM75 281715Z AUTO 09006KT 40SM 27/11 A3020 RMK AO1 T02720111
LAUREL      |K6S8 281715Z AUTO 00000KT 40SM 24/07 A3024 RMK AO1 T02390072






000
SXUS55 KMSO 281703
OSOMSO
MONTANA AWOS SUMMARY
NATIONAL WEATHER SERVICE MISSOULA MT
1103 AM MDT MON JUL 28 2014

Montana AWOS Reports

LAUREL      |K6S8 281655Z AUTO 00000KT 40SM 23/07 A3024 RMK AO1 T02330067
ROUNDUP     |KRPX 281655Z AUTO 08004KT 40SM 26/07 A3017 RMK AO1 T02610072
EKALAKA     |K97M 281455Z AUTO 11010KT 40SM 20/12 A3028 RMK AO1 T02000117






000
SXUS55 KMSO 281643
OSOMSO
MONTANA AWOS SUMMARY
NATIONAL WEATHER SERVICE MISSOULA MT
1042 AM MDT MON JUL 28 2014

Montana AWOS Reports

ROUNDUP     |KRPX 281635Z AUTO 09004KT 40SM 25/07 A3017 RMK AO1 T02500067
LAUREL      |K6S8 281635Z AUTO 05004KT 40SM 23/07 A3025 RMK AO1 T02280072






000
SXUS55 KMSO 281624
OSOMSO
MONTANA AWOS SUMMARY
NATIONAL WEATHER SERVICE MISSOULA MT
1023 AM MDT MON JUL 28 2014

Montana AWOS Reports

LAUREL      |K6S8 281615Z AUTO 00000KT 40SM 22/08 A3025 RMK AO1 T02220078
MALTA       |KM75 281615Z AUTO 09006KT 40SM 25/12 A3021 RMK AO1 T02500117






000
SXUS55 KMSO 281604
OSOMSO
MONTANA AWOS SUMMARY
NATIONAL WEATHER SERVICE MISSOULA MT
1003 AM MDT MON JUL 28 2014

Montana AWOS Reports

LAUREL      |K6S8 281555Z AUTO 00000KT 40SM 21/07 A3025 RMK AO1 T02110072
ROUNDUP     |KRPX 281555Z AUTO 06004KT 40SM 24/07 A3018 RMK AO1 T02390067






000
SXUS55 KMSO 281543
OSOMSO
MONTANA AWOS SUMMARY
NATIONAL WEATHER SERVICE MISSOULA MT
943 AM MDT MON JUL 28 2014

Montana AWOS Reports

ROUNDUP     |KRPX 281535Z AUTO 00000KT 40SM 23/06 A3018 RMK AO1 T02280061
LAUREL      |K6S8 281535Z AUTO 00000KT 40SM 21/08 A3025 RMK AO1 T02060078






000
SXUS55 KMSO 281523
OSOMSO
MONTANA AWOS SUMMARY
NATIONAL WEATHER SERVICE MISSOULA MT
923 AM MDT MON JUL 28 2014

Montana AWOS Reports

LAUREL      |K6S8 281515Z AUTO 00000KT 40SM 20/08 A3026 RMK AO1 T02000078






000
SXUS55 KMSO 281503
OSOMSO
MONTANA AWOS SUMMARY
NATIONAL WEATHER SERVICE MISSOULA MT
903 AM MDT MON JUL 28 2014

Montana AWOS Reports

ROUNDUP     |KRPX 281455Z AUTO 00000KT 40SM 21/06 A3019 RMK AO1 T02060056
LAUREL      |K6S8 281455Z AUTO 00000KT 40SM 19/07 A3025 RMK AO1 T01940067






000
SXUS55 KMSO 281443
OSOMSO
MONTANA AWOS SUMMARY
NATIONAL WEATHER SERVICE MISSOULA MT
843 AM MDT MON JUL 28 2014

Montana AWOS Reports

ROUNDUP     |KRPX 281435Z AUTO 00000KT 40SM 19/06 A3018 RMK AO1 T01940056
MALTA       |KM75 281435Z AUTO 09006KT 40SM 19/13 A3023 RMK AO1 T01890128
LAUREL      |K6S8 281435Z AUTO 00000KT 40SM 18/07 A3026 RMK AO1 T01830067






000
SXUS55 KMSO 281433
OSOMSO
MONTANA AWOS SUMMARY
NATIONAL WEATHER SERVICE MISSOULA MT
833 AM MDT MON JUL 28 2014

Montana AWOS Reports

SCOBEY      |K9S2 281355Z AUTO 00000KT 13/11 A3028 RMK AO1 T01330111
PLAINS      |KS34 281355Z AUTO 00000KT 25SM 16/08 A3019 RMK AO1 T01560083






000
SXUS55 KMSO 281423
OSOMSO
MONTANA AWOS SUMMARY
NATIONAL WEATHER SERVICE MISSOULA MT
823 AM MDT MON JUL 28 2014

Montana AWOS Reports

ROUNDUP     |KRPX 281415Z AUTO 00000KT 40SM 18/06 A3019 RMK AO1 T01780056






000
SXUS55 KMSO 281403
OSOMSO
MONTANA AWOS SUMMARY
NATIONAL WEATHER SERVICE MISSOULA MT
803 AM MDT MON JUL 28 2014

Montana AWOS Reports

ROUNDUP     |KRPX 281355Z AUTO 00000KT 40SM 17/06 A3019 RMK AO1 T01670056
LAUREL      |K6S8 281355Z AUTO 00000KT 40SM 17/08 A3026 RMK AO1 T01720083






000
SXUS55 KMSO 281343
OSOMSO
MONTANA AWOS SUMMARY
NATIONAL WEATHER SERVICE MISSOULA MT
743 AM MDT MON JUL 28 2014

Montana AWOS Reports

LAUREL      |K6S8 281335Z AUTO 00000KT 40SM 17/06 A3025 RMK AO1 T01720061






000
SXUS55 KMSO 281323
OSOMSO
MONTANA AWOS SUMMARY
NATIONAL WEATHER SERVICE MISSOULA MT
723 AM MDT MON JUL 28 2014

Montana AWOS Reports

ROUNDUP     |KRPX 281315Z AUTO 00000KT 40SM 17/05 A3019 RMK AO1 T01670050
LAUREL      |K6S8 281315Z AUTO 00000KT 40SM 17/06 A3025 RMK AO1 T01670056






000
SXUS55 KMSO 281313
OSOMSO
MONTANA AWOS SUMMARY
NATIONAL WEATHER SERVICE MISSOULA MT
712 AM MDT MON JUL 28 2014

Montana AWOS Reports

EKALAKA     |K97M 281255Z AUTO 10011KT 40SM 15/11 A3028 RMK AO1 T01500106
PLAINS      |KS34 281255Z AUTO 00000KT 25SM 13/08 A3017 RMK AO1 T01330078






000
SXUS55 KMSO 281304
OSOMSO
MONTANA AWOS SUMMARY
NATIONAL WEATHER SERVICE MISSOULA MT
703 AM MDT MON JUL 28 2014

Montana AWOS Reports

LAUREL      |K6S8 281255Z AUTO 00000KT 40SM 15/05 A3024 RMK AO1 T01500050






000
SXUS55 KMSO 281253
OSOMSO
MONTANA AWOS SUMMARY
NATIONAL WEATHER SERVICE MISSOULA MT
652 AM MDT MON JUL 28 2014

Montana AWOS Reports

LAUREL      |K6S8 281235Z AUTO 30006KT 40SM 14/05 A3025 RMK AO1 T01390050
SCOBEY      |K9S2 281155Z AUTO 00000KT 09/07 A3027 RMK AO1 T00940072
EKALAKA     |K97M 281155Z AUTO 12007KT 40SM 13/09 A3027 RMK AO1 T01280094
PLAINS      |KS34 281155Z AUTO 00000KT 25SM 14/09 A3016 RMK AO1 T01390089






000
SXUS55 KMSO 281243
OSOMSO
MONTANA AWOS SUMMARY
NATIONAL WEATHER SERVICE MISSOULA MT
643 AM MDT MON JUL 28 2014

Montana AWOS Reports

ROUNDUP     |KRPX 281235Z AUTO 00000KT 40SM 14/04 A3018 RMK AO1 T01390044
MALTA       |KM75 281235Z AUTO 00000KT 40SM 11/09 A3022 RMK AO1 T01110089






000
SXUS55 KMSO 281223
OSOMSO
MONTANA AWOS SUMMARY
NATIONAL WEATHER SERVICE MISSOULA MT
623 AM MDT MON JUL 28 2014

Montana AWOS Reports

LAUREL      |K6S8 281215Z AUTO 29004KT 40SM 14/04 A3024 RMK AO1 T01390044






000
SXUS55 KMSO 281203
OSOMSO
MONTANA AWOS SUMMARY
NATIONAL WEATHER SERVICE MISSOULA MT
603 AM MDT MON JUL 28 2014

Montana AWOS Reports

LAUREL      |K6S8 281155Z AUTO 30005KT 40SM 14/04 A3024 RMK AO1 T01390044
ROUNDUP     |KRPX 281155Z AUTO 00000KT 40SM 14/04 A3018 RMK AO1 T01390039






000
SXUS55 KMSO 281143
OSOMSO
MONTANA AWOS SUMMARY
NATIONAL WEATHER SERVICE MISSOULA MT
543 AM MDT MON JUL 28 2014

Montana AWOS Reports

LAUREL      |K6S8 281135Z AUTO 00000KT 40SM 14/04 A3024 RMK AO1 T01440039
ROUNDUP     |KRPX 281135Z AUTO 00000KT 40SM 14/04 A3018 RMK AO1 T01440044






000
SXUS55 KMSO 281134
OSOMSO
MONTANA AWOS SUMMARY
NATIONAL WEATHER SERVICE MISSOULA MT
533 AM MDT MON JUL 28 2014

Montana AWOS Reports

MALTA       |KM75 281055Z AUTO 00000KT 40SM 11/08 A3021 RMK AO1 T01060078






000
SXUS55 KMSO 281123
OSOMSO
MONTANA AWOS SUMMARY
NATIONAL WEATHER SERVICE MISSOULA MT
522 AM MDT MON JUL 28 2014

Montana AWOS Reports

ROUNDUP     |KRPX 281115Z AUTO 00000KT 40SM 14/04 A3018 RMK AO1 T01440039






000
SXUS55 KMSO 281114
OSOMSO
MONTANA AWOS SUMMARY
NATIONAL WEATHER SERVICE MISSOULA MT
513 AM MDT MON JUL 28 2014

Montana AWOS Reports

SCOBEY      |K9S2 281055Z AUTO 00000KT 10/08 A3027 RMK AO1 T01000078






000
SXUS55 KMSO 281103
OSOMSO
MONTANA AWOS SUMMARY
NATIONAL WEATHER SERVICE MISSOULA MT
502 AM MDT MON JUL 28 2014

Montana AWOS Reports

MALTA       |KM75 280955Z AUTO 00000KT 40SM 12/08 A3020 RMK AO1 T01170078
ROUNDUP     |KRPX 281055Z AUTO 00000KT 40SM 14/04 A3017 RMK AO1 T01390039
EKALAKA     |K97M 281055Z AUTO 11007KT 40SM 13/10 A3028 RMK AO1 T01280100
LAUREL      |K6S8 281055Z AUTO 00000KT 40SM 16/04 A3023 RMK AO1 T01560044






000
SXUS55 KMSO 281044
OSOMSO
MONTANA AWOS SUMMARY
NATIONAL WEATHER SERVICE MISSOULA MT
443 AM MDT MON JUL 28 2014

Montana AWOS Reports

LAUREL      |K6S8 281035Z AUTO 00000KT 40SM 16/04 A3023 RMK AO1 T01610044






000
SXUS55 KMSO 281023
OSOMSO
MONTANA AWOS SUMMARY
NATIONAL WEATHER SERVICE MISSOULA MT
423 AM MDT MON JUL 28 2014

Montana AWOS Reports

LAUREL      |K6S8 281015Z AUTO 34005KT 40SM 17/04 A3022 RMK AO1 T01670044






000
SXUS55 KMSO 281013
OSOMSO
MONTANA AWOS SUMMARY
NATIONAL WEATHER SERVICE MISSOULA MT
412 AM MDT MON JUL 28 2014

Montana AWOS Reports

LAUREL      |K6S8 280955Z AUTO 34005KT 40SM 17/04 A3022 RMK AO1 T01670044
PLAINS      |KS34 280955Z AUTO 00000KT 25SM 15/07 A3015 RMK AO1 T01500072






000
SXUS55 KMSO 281003
OSOMSO
MONTANA AWOS SUMMARY
NATIONAL WEATHER SERVICE MISSOULA MT
402 AM MDT MON JUL 28 2014

Montana AWOS Reports

ROUNDUP     |KRPX 280955Z AUTO 00000KT 40SM 15/04 A3017 RMK AO1 T01500039






000
SXUS55 KMSO 280943
OSOMSO
MONTANA AWOS SUMMARY
NATIONAL WEATHER SERVICE MISSOULA MT
343 AM MDT MON JUL 28 2014

Montana AWOS Reports

LAUREL      |K6S8 280935Z AUTO 34004KT 40SM 17/04 A3022 RMK AO1 T01720044






000
SXUS55 KMSO 280924
OSOMSO
MONTANA AWOS SUMMARY
NATIONAL WEATHER SERVICE MISSOULA MT
323 AM MDT MON JUL 28 2014

Montana AWOS Reports

EKALAKA     |K97M 280855Z AUTO 11007KT 40SM 13/10 A3028 RMK AO1 T01330100
ROUNDUP     |KRPX 280915Z AUTO 00000KT 40SM 15/03 A3017 RMK AO1 T01500033
MALTA       |KM75 280915Z AUTO 00000KT 40SM 13/09 A3021 RMK AO1 T01280089
LAUREL      |K6S8 280915Z AUTO 35006KT 40SM 17/04 A3022 RMK AO1 T01670039






000
SXUS55 KMSO 280903
OSOMSO
MONTANA AWOS SUMMARY
NATIONAL WEATHER SERVICE MISSOULA MT
303 AM MDT MON JUL 28 2014

Montana AWOS Reports

ROUNDUP     |KRPX 280855Z AUTO 00000KT 40SM 16/03 A3017 RMK AO1 T01560033






000
SXUS55 KMSO 280843
OSOMSO
MONTANA AWOS SUMMARY
NATIONAL WEATHER SERVICE MISSOULA MT
243 AM MDT MON JUL 28 2014

Montana AWOS Reports

LAUREL      |K6S8 280835Z AUTO 34007KT 40SM 18/03 A3021 RMK AO1 T01780033






000
SXUS55 KMSO 280824
OSOMSO
MONTANA AWOS SUMMARY
NATIONAL WEATHER SERVICE MISSOULA MT
223 AM MDT MON JUL 28 2014

Montana AWOS Reports

MALTA       |KM75 280815Z AUTO 00000KT 40SM 13/09 A3021 RMK AO1 T01280089
LAUREL      |K6S8 280815Z AUTO 35008KT 40SM 18/03 A3021 RMK AO1 T01830033
ROUNDUP     |KRPX 280815Z AUTO 00000KT 40SM 17/04 A3017 RMK AO1 T01670039






000
SXUS55 KMSO 280813
OSOMSO
MONTANA AWOS SUMMARY
NATIONAL WEATHER SERVICE MISSOULA MT
213 AM MDT MON JUL 28 2014

Montana AWOS Reports

LAUREL      |K6S8 280755Z AUTO 17007KT 080V260 40SM 19/03 A3021 RMK AO1 T01890033
PLAINS      |KS34 280755Z AUTO 00000KT 25SM 17/08 A3015 RMK AO1 T01670078






000
SXUS55 KMSO 280803
OSOMSO
MONTANA AWOS SUMMARY
NATIONAL WEATHER SERVICE MISSOULA MT
203 AM MDT MON JUL 28 2014

Montana AWOS Reports

ROUNDUP     |KRPX 280755Z AUTO 00000KT 40SM 18/04 A3018 RMK AO1 T01780039
MALTA       |KM75 280755Z AUTO 00000KT 40SM 13/08 A3021 RMK AO1 T01280083
SCOBEY      |K9S2 280755Z AUTO 14004KT 13/09 A3027 RMK AO1 T01330094
EKALAKA     |K97M 280755Z AUTO 12007KT 40SM 13/09 A3029 RMK AO1 T01280094






000
SXUS55 KMSO 280744
OSOMSO
MONTANA AWOS SUMMARY
NATIONAL WEATHER SERVICE MISSOULA MT
143 AM MDT MON JUL 28 2014

Montana AWOS Reports

LAUREL      |K6S8 280735Z AUTO 34005KT 40SM 19/03 A3022 RMK AO1 T01940033






000
SXUS55 KMSO 280733
OSOMSO
MONTANA AWOS SUMMARY
NATIONAL WEATHER SERVICE MISSOULA MT
133 AM MDT MON JUL 28 2014

Montana AWOS Reports

MALTA       |KM75 280655Z AUTO 00000KT 40SM 14/08 A3021 RMK AO1 T01390083






000
SXUS55 KMSO 280724
OSOMSO
MONTANA AWOS SUMMARY
NATIONAL WEATHER SERVICE MISSOULA MT
123 AM MDT MON JUL 28 2014

Montana AWOS Reports

LAUREL      |K6S8 280715Z AUTO 36006KT 40SM 21/04 A3022 RMK AO1 T02060039
ROUNDUP     |KRPX 280715Z AUTO 00000KT 40SM 18/04 A3018 RMK AO1 T01830039






000
SXUS55 KMSO 280713
OSOMSO
MONTANA AWOS SUMMARY
NATIONAL WEATHER SERVICE MISSOULA MT
113 AM MDT MON JUL 28 2014

Montana AWOS Reports

EKALAKA     |K97M 280655Z AUTO 12006KT 40SM 14/10 A3029 RMK AO1 T01390100






000
SXUS55 KMSO 280703
OSOMSO
MONTANA AWOS SUMMARY
NATIONAL WEATHER SERVICE MISSOULA MT
103 AM MDT MON JUL 28 2014

Montana AWOS Reports

ROUNDUP     |KRPX 280655Z AUTO 00000KT 40SM 19/04 A3018 RMK AO1 T01890039
PLAINS      |KS34 280655Z AUTO 00000KT 40SM 17/08 A3014 RMK AO1 T01720083
LAUREL      |K6S8 280655Z AUTO 01007KT 40SM 21/04 A3022 RMK AO1 T02110039
SCOBEY      |K9S2 280655Z AUTO 00000KT 13/09 A3027 RMK AO1 T01330094






000
SXUS55 KMSO 280644
OSOMSO
MONTANA AWOS SUMMARY
NATIONAL WEATHER SERVICE MISSOULA MT
1243 AM MDT MON JUL 28 2014

Montana AWOS Reports

LAUREL      |K6S8 280635Z AUTO 36006KT 40SM 21/04 A3022 RMK AO1 T02060039
ROUNDUP     |KRPX 280635Z AUTO 05005KT 40SM 19/03 A3018 RMK AO1 T01940033






000
SXUS55 KMSO 280623
OSOMSO
MONTANA AWOS SUMMARY
NATIONAL WEATHER SERVICE MISSOULA MT
1223 AM MDT MON JUL 28 2014

Montana AWOS Reports

LAUREL      |K6S8 280615Z AUTO 36005KT 40SM 21/04 A3022 RMK AO1 T02060039
ROUNDUP     |KRPX 280615Z AUTO 06004KT 40SM 20/03 A3018 RMK AO1 T02000033
MALTA       |KM75 280615Z AUTO 00000KT 40SM 15/09 A3021 RMK AO1 T01500089






000
SXUS55 KMSO 280613
OSOMSO
MONTANA AWOS SUMMARY
NATIONAL WEATHER SERVICE MISSOULA MT
1212 AM MDT MON JUL 28 2014

Montana AWOS Reports

MALTA       |KM75 280555Z AUTO 00000KT 40SM 16/09 A3020 RMK AO1 T01560089






000
SXUS55 KMSO 280604
OSOMSO
MONTANA AWOS SUMMARY
NATIONAL WEATHER SERVICE MISSOULA MT
1203 AM MDT MON JUL 28 2014

Montana AWOS Reports

LAUREL      |K6S8 280555Z AUTO 00000KT 40SM 20/04 A3022 RMK AO1 T02000039
ROUNDUP     |KRPX 280555Z AUTO 05006KT 40SM 21/04 A3018 RMK AO1 T02060039
SCOBEY      |K9S2 280555Z AUTO 12007KT 15/10 A3027 RMK AO1 T01500100






000
SXUS55 KMSO 280543
OSOMSO
MONTANA AWOS SUMMARY
NATIONAL WEATHER SERVICE MISSOULA MT
1143 PM MDT SUN JUL 27 2014

Montana AWOS Reports

LAUREL      |K6S8 280535Z AUTO 01004KT 40SM 20/04 A3022 RMK AO1 T02000039
ROUNDUP     |KRPX 280535Z AUTO 05006KT 40SM 21/03 A3018 RMK AO1 T02110033






000
SXUS55 KMSO 280524
OSOMSO
MONTANA AWOS SUMMARY
NATIONAL WEATHER SERVICE MISSOULA MT
1123 PM MDT SUN JUL 27 2014

Montana AWOS Reports

LAUREL      |K6S8 280515Z AUTO 00000KT 40SM 19/04 A3022 RMK AO1 T01940044
ROUNDUP     |KRPX 280515Z AUTO 06006KT 40SM 22/03 A3017 RMK AO1 T02170028






000
SXUS55 KMSO 280513
OSOMSO
MONTANA AWOS SUMMARY
NATIONAL WEATHER SERVICE MISSOULA MT
1112 PM MDT SUN JUL 27 2014

Montana AWOS Reports

SCOBEY      |K9S2 280455Z AUTO 11007KT 16/11 A3026 RMK AO1 T01560111






000
SXUS55 KMSO 280503
OSOMSO
MONTANA AWOS SUMMARY
NATIONAL WEATHER SERVICE MISSOULA MT
1103 PM MDT SUN JUL 27 2014

Montana AWOS Reports

LAUREL      |K6S8 280455Z AUTO 00000KT 40SM 21/05 A3022 RMK AO1 T02060050
ROUNDUP     |KRPX 280455Z AUTO 03007KT 40SM 21/03 A3017 RMK AO1 T02110033
EKALAKA     |K97M 280455Z AUTO 11008KT 40SM 16/10 A3028 RMK AO1 T01560100
PLAINS      |KS34 280455Z AUTO 00000KT 40SM 21/06 A3014 RMK AO1 T02110061






000
SXUS55 KMSO 280453
OSOMSO
MONTANA AWOS SUMMARY
NATIONAL WEATHER SERVICE MISSOULA MT
1053 PM MDT SUN JUL 27 2014

Montana AWOS Reports

MALTA       |KM75 280435Z AUTO 00000KT 40SM 18/10 A3020 RMK AO1 T01830100






000
SXUS55 KMSO 280443
OSOMSO
MONTANA AWOS SUMMARY
NATIONAL WEATHER SERVICE MISSOULA MT
1042 PM MDT SUN JUL 27 2014

Montana AWOS Reports

LAUREL      |K6S8 280435Z AUTO 00000KT 40SM 21/04 A3022 RMK AO1 T02110044
ROUNDUP     |KRPX 280435Z AUTO 00000KT 40SM 22/03 A3016 RMK AO1 T02170028






000
SXUS55 KMSO 280423
OSOMSO
MONTANA AWOS SUMMARY
NATIONAL WEATHER SERVICE MISSOULA MT
1023 PM MDT SUN JUL 27 2014

Montana AWOS Reports

LAUREL      |K6S8 280415Z AUTO 00000KT 40SM 22/04 A3022 RMK AO1 T02170044
ROUNDUP     |KRPX 280415Z AUTO 00000KT 40SM 22/03 A3016 RMK AO1 T02220033
MALTA       |KM75 280415Z AUTO 00000KT 40SM 19/10 A3019 RMK AO1 T01890100






000
SXUS55 KMSO 280413
OSOMSO
MONTANA AWOS SUMMARY
NATIONAL WEATHER SERVICE MISSOULA MT
1013 PM MDT SUN JUL 27 2014

Montana AWOS Reports

MALTA       |KM75 280355Z AUTO 00000KT 40SM 19/11 A3019 RMK AO1 T01940106
SCOBEY      |K9S2 280355Z AUTO 07005KT 16/12 A3026 RMK AO1 T01610117
PLAINS      |KS34 280355Z AUTO 00000KT 40SM 23/08 A3013 RMK AO1 T02330083






000
SXUS55 KMSO 280403
OSOMSO
MONTANA AWOS SUMMARY
NATIONAL WEATHER SERVICE MISSOULA MT
1003 PM MDT SUN JUL 27 2014

Montana AWOS Reports

LAUREL      |K6S8 280355Z AUTO 00000KT 40SM 22/04 A3022 RMK AO1 T02170044
ROUNDUP     |KRPX 280355Z AUTO 00000KT 40SM 23/03 A3015 RMK AO1 T02280033
EKALAKA     |K97M 280355Z AUTO 12007KT 40SM 17/10 A3028 RMK AO1 T01670100






000
SXUS55 KMSO 280344
OSOMSO
MONTANA AWOS SUMMARY
NATIONAL WEATHER SERVICE MISSOULA MT
943 PM MDT SUN JUL 27 2014

Montana AWOS Reports

LAUREL      |K6S8 280335Z AUTO 00000KT 40SM 22/05 A3021 RMK AO1 T02220050
ROUNDUP     |KRPX 280335Z AUTO 00000KT 40SM 23/03 A3015 RMK AO1 T02280028






000
SXUS55 KMSO 280323
OSOMSO
MONTANA AWOS SUMMARY
NATIONAL WEATHER SERVICE MISSOULA MT
922 PM MDT SUN JUL 27 2014

Montana AWOS Reports

LAUREL      |K6S8 280315Z AUTO 36004KT 40SM 23/06 A3021 RMK AO1 T02330056
ROUNDUP     |KRPX 280315Z AUTO 00000KT 40SM 24/04 A3014 RMK AO1 T02440039
MALTA       |KM75 280315Z AUTO 00000KT 40SM 22/11 A3018 RMK AO1 T02170111






000
SXUS55 KMSO 280313
OSOMSO
MONTANA AWOS SUMMARY
NATIONAL WEATHER SERVICE MISSOULA MT
913 PM MDT SUN JUL 27 2014

Montana AWOS Reports

MALTA       |KM75 280255Z AUTO 00000KT 40SM 23/11 A3018 RMK AO1 T02330111






000
SXUS55 KMSO 280304
OSOMSO
MONTANA AWOS SUMMARY
NATIONAL WEATHER SERVICE MISSOULA MT
903 PM MDT SUN JUL 27 2014

Montana AWOS Reports

LAUREL      |K6S8 280255Z AUTO 36004KT 40SM 24/05 A3020 RMK AO1 T02390050
ROUNDUP     |KRPX 280255Z AUTO 00000KT 40SM 25/03 A3014 RMK AO1 T02500033
SCOBEY      |K9S2 280255Z AUTO 07004KT 18/12 A3025 RMK AO1 T01780122
EKALAKA     |K97M 280255Z AUTO 07006KT 40SM 19/10 A3026 RMK AO1 T01890100
PLAINS      |KS34 280255Z AUTO 00000KT 40SM 29/11 A3011 RMK AO1 T02890111






000
SXUS55 KMSO 280243
OSOMSO
MONTANA AWOS SUMMARY
NATIONAL WEATHER SERVICE MISSOULA MT
843 PM MDT SUN JUL 27 2014

Montana AWOS Reports

LAUREL      |K6S8 280235Z AUTO 36004KT 40SM 25/05 A3020 RMK AO1 T02500050
ROUNDUP     |KRPX 280235Z AUTO 06004KT 40SM 26/03 A3013 RMK AO1 T02610033






000
SXUS55 KMSO 280223
OSOMSO
MONTANA AWOS SUMMARY
NATIONAL WEATHER SERVICE MISSOULA MT
822 PM MDT SUN JUL 27 2014

Montana AWOS Reports

LAUREL      |K6S8 280215Z AUTO 01006KT 40SM 26/06 A3019 RMK AO1 T02610056
ROUNDUP     |KRPX 280215Z AUTO 06005KT 40SM 27/03 A3013 RMK AO1 T02720033
MALTA       |KM75 280215Z AUTO 00000KT 40SM 26/10 A3017 RMK AO1 T02610100






000
SXUS55 KMSO 280213
OSOMSO
MONTANA AWOS SUMMARY
NATIONAL WEATHER SERVICE MISSOULA MT
813 PM MDT SUN JUL 27 2014

Montana AWOS Reports

MALTA       |KM75 280155Z AUTO 00000KT 40SM 27/10 A3017 RMK AO1 T02720100






000
SXUS55 KMSO 280203
OSOMSO
MONTANA AWOS SUMMARY
NATIONAL WEATHER SERVICE MISSOULA MT
803 PM MDT SUN JUL 27 2014

Montana AWOS Reports

LAUREL      |K6S8 280155Z AUTO 02006KT 40SM 27/07 A3019 RMK AO1 T02720067
ROUNDUP     |KRPX 280155Z AUTO 07006KT 40SM 28/03 A3013 RMK AO1 T02780033
SCOBEY      |K9S2 280155Z AUTO 00000KT 23/13 A3024 RMK AO1 T02330133






000
SXUS55 KMSO 280143
OSOMSO
MONTANA AWOS SUMMARY
NATIONAL WEATHER SERVICE MISSOULA MT
743 PM MDT SUN JUL 27 2014

Montana AWOS Reports

LAUREL      |K6S8 280135Z AUTO 01007KT 40SM 28/06 A3019 RMK AO1 T02780061
ROUNDUP     |KRPX 280135Z AUTO 07007KT 40SM 29/04 A3013 RMK AO1 T02890039
MALTA       |KM75 280135Z AUTO 09004KT 40SM 28/10 A3017 RMK AO1 T02780100






000
SXUS55 KMSO 280123
OSOMSO
MONTANA AWOS SUMMARY
NATIONAL WEATHER SERVICE MISSOULA MT
723 PM MDT SUN JUL 27 2014

Montana AWOS Reports

LAUREL      |K6S8 280115Z AUTO 01007KT 40SM 28/06 A3019 RMK AO1 T02830056
ROUNDUP     |KRPX 280115Z AUTO 07007KT 40SM 29/03 A3013 RMK AO1 T02940033






000
SXUS55 KMSO 280114
OSOMSO
MONTANA AWOS SUMMARY
NATIONAL WEATHER SERVICE MISSOULA MT
713 PM MDT SUN JUL 27 2014

Montana AWOS Reports

MALTA       |KM75 280055Z AUTO 09004KT 40SM 29/09 A3017 RMK AO1 T02890089






000
SXUS55 KMSO 280104
OSOMSO
MONTANA AWOS SUMMARY
NATIONAL WEATHER SERVICE MISSOULA MT
703 PM MDT SUN JUL 27 2014

Montana AWOS Reports

LAUREL      |K6S8 280055Z AUTO 03009KT 40SM 29/06 A3019 RMK AO1 T02890061
ROUNDUP     |KRPX 280055Z AUTO 07007KT 40SM 29/03 A3013 RMK AO1 T02940033
EKALAKA     |K97M 280055Z AUTO 34004KT 40SM 23/07 A3025 RMK AO1 T02330072
PLAINS      |KS34 280055Z AUTO 00000KT 40SM 34/06 A3009 RMK AO1 T03440061
SCOBEY      |K9S2 280055Z AUTO 00000KT 24/12 A3024 RMK AO1 T02440122






000
SXUS55 KMSO 280043
OSOMSO
MONTANA AWOS SUMMARY
NATIONAL WEATHER SERVICE MISSOULA MT
643 PM MDT SUN JUL 27 2014

Montana AWOS Reports

LAUREL      |K6S8 280035Z AUTO 03009G13KT 40SM 29/06 A3019 RMK AO1 T02940056
ROUNDUP     |KRPX 280035Z AUTO 06005KT 40SM 30/03 A3013 RMK AO1 T03000028
MALTA       |KM75 280035Z AUTO 09004KT 40SM 29/09 A3017 RMK AO1 T02940089






000
SXUS55 KMSO 280034
OSOMSO
MONTANA AWOS SUMMARY
NATIONAL WEATHER SERVICE MISSOULA MT
633 PM MDT SUN JUL 27 2014

Montana AWOS Reports

MALTA       |KM75 280015Z AUTO 00000KT 40SM 29/09 A3018 RMK AO1 T02940094






000
SXUS55 KMSO 280023
OSOMSO
MONTANA AWOS SUMMARY
NATIONAL WEATHER SERVICE MISSOULA MT
623 PM MDT SUN JUL 27 2014

Montana AWOS Reports

LAUREL      |K6S8 280015Z AUTO 02008KT 40SM 30/06 A3020 RMK AO1 T03000061
ROUNDUP     |KRPX 280015Z AUTO 07008KT 40SM 30/04 A3013 RMK AO1 T03000039






000
SXUS55 KMSO 280014
OSOMSO
MONTANA AWOS SUMMARY
NATIONAL WEATHER SERVICE MISSOULA MT
613 PM MDT SUN JUL 27 2014

Montana AWOS Reports

MALTA       |KM75 272355Z AUTO 00000KT 40SM 30/09 A3018 RMK AO1 T03000094






000
SXUS55 KMSO 280003
OSOMSO
MONTANA AWOS SUMMARY
NATIONAL WEATHER SERVICE MISSOULA MT
602 PM MDT SUN JUL 27 2014

Montana AWOS Reports

LAUREL      |K6S8 272355Z AUTO 02008KT 40SM 30/06 A3020 RMK AO1 T03000056
ROUNDUP     |KRPX 272355Z AUTO 10006KT 40SM 30/03 A3013 RMK AO1 T03000028
SCOBEY      |K9S2 272355Z AUTO 07005KT 23/12 A3024 RMK AO1 T02280122
EKALAKA     |K97M 272355Z AUTO 34005KT 40SM 24/07 A3025 RMK AO1 T02440072






000
SXUS55 KMSO 272343
OSOMSO
MONTANA AWOS SUMMARY
NATIONAL WEATHER SERVICE MISSOULA MT
543 PM MDT SUN JUL 27 2014

Montana AWOS Reports

LAUREL      |K6S8 272335Z AUTO 03007KT 40SM 31/06 A3020 RMK AO1 T03060056
ROUNDUP     |KRPX 272335Z AUTO 09006KT 40SM 30/02 A3013 RMK AO1 T03000022






000
SXUS55 KMSO 272333
OSOMSO
MONTANA AWOS SUMMARY
NATIONAL WEATHER SERVICE MISSOULA MT
533 PM MDT SUN JUL 27 2014

Montana AWOS Reports

MALTA       |KM75 272255Z AUTO 00000KT 40SM 30/09 A3019 RMK AO1 T03000094






000
SXUS55 KMSO 272323
OSOMSO
MONTANA AWOS SUMMARY
NATIONAL WEATHER SERVICE MISSOULA MT
523 PM MDT SUN JUL 27 2014

Montana AWOS Reports

LAUREL      |K6S8 272315Z AUTO 05008KT 40SM 31/06 A3020 RMK AO1 T03060056
ROUNDUP     |KRPX 272315Z AUTO 00000KT 40SM 30/03 A3014 RMK AO1 T03000028






000
SXUS55 KMSO 272303
OSOMSO
MONTANA AWOS SUMMARY
NATIONAL WEATHER SERVICE MISSOULA MT
503 PM MDT SUN JUL 27 2014

Montana AWOS Reports

ROUNDUP     |KRPX 272255Z AUTO 00000KT 40SM 31/03 A3014 RMK AO1 T03060033
MALTA       |KM75 272255Z AUTO 00000KT 40SM 30/09 A3019 RMK AO1 T03000094
SCOBEY      |K9S2 272255Z AUTO 00000KT 25/12 A3025 RMK AO1 T02500122
PLAINS      |KS34 272255Z AUTO 00000KT 40SM 34/07 A3012 RMK AO1 T03440067
EKALAKA     |K97M 272255Z AUTO 30008KT 40SM 25/08 A3025 RMK AO1 T02500078






000
SXUS55 KMSO 272243
OSOMSO
MONTANA AWOS SUMMARY
NATIONAL WEATHER SERVICE MISSOULA MT
443 PM MDT SUN JUL 27 2014

Montana AWOS Reports

LAUREL      |K6S8 272235Z AUTO 05006KT 40SM 31/06 A3021 RMK AO1 T03060056
ROUNDUP     |KRPX 272235Z AUTO 14007KT 40SM 30/03 A3014 RMK AO1 T03000028
MALTA       |KM75 272235Z AUTO 00000KT 40SM 28/09 A3019 RMK AO1 T02830089






000
SXUS55 KMSO 272223
OSOMSO
MONTANA AWOS SUMMARY
NATIONAL WEATHER SERVICE MISSOULA MT
423 PM MDT SUN JUL 27 2014

Montana AWOS Reports

LAUREL      |K6S8 272215Z AUTO 02006KT 40SM 31/06 A3021 RMK AO1 T03060056
ROUNDUP     |KRPX 272215Z AUTO 00000KT 40SM 29/03 A3015 RMK AO1 T02940033






000
SXUS55 KMSO 272204
OSOMSO
MONTANA AWOS SUMMARY
NATIONAL WEATHER SERVICE MISSOULA MT
403 PM MDT SUN JUL 27 2014

Montana AWOS Reports

LAUREL      |K6S8 272155Z AUTO 03006KT 40SM 30/06 A3021 RMK AO1 T03000056
ROUNDUP     |KRPX 272155Z AUTO 10006KT 40SM 30/04 A3015 RMK AO1 T03000039
PLAINS      |KS34 272155Z AUTO 00000KT 40SM 33/07 A3014 RMK AO1 T03330067
SCOBEY      |K9S2 272155Z AUTO 00000KT 23/12 A3025 RMK AO1 T02330117
EKALAKA     |K97M 272155Z AUTO 29005KT 40SM 25/08 A3026 RMK AO1 T02500078
MALTA       |KM75 272155Z AUTO 09005KT 40SM 29/11 A3019 RMK AO1 T02890111






000
SXUS55 KMSO 272144
OSOMSO
MONTANA AWOS SUMMARY
NATIONAL WEATHER SERVICE MISSOULA MT
343 PM MDT SUN JUL 27 2014

Montana AWOS Reports

LAUREL      |K6S8 272135Z AUTO 04008KT 40SM 30/06 A3022 RMK AO1 T03000056
ROUNDUP     |KRPX 272135Z AUTO VRB05KT 40SM 29/04 A3015 RMK AO1 T02940044






000
SXUS55 KMSO 272133
OSOMSO
MONTANA AWOS SUMMARY
NATIONAL WEATHER SERVICE MISSOULA MT
332 PM MDT SUN JUL 27 2014

Montana AWOS Reports

MALTA       |KM75 272115Z AUTO 00000KT 40SM 29/11 A3020 RMK AO1 T02940106
MALTA       |KM75 272055Z AUTO 10005KT 40SM 28/10 A3020 RMK AO1 T02830100






000
SXUS55 KMSO 272123
OSOMSO
MONTANA AWOS SUMMARY
NATIONAL WEATHER SERVICE MISSOULA MT
323 PM MDT SUN JUL 27 2014

Montana AWOS Reports

LAUREL      |K6S8 272115Z AUTO 05007KT 40SM 30/06 A3022 RMK AO1 T03000061
ROUNDUP     |KRPX 272115Z AUTO 00000KT 40SM 29/04 A3016 RMK AO1 T02890039






000
SXUS55 KMSO 272113
OSOMSO
MONTANA AWOS SUMMARY
NATIONAL WEATHER SERVICE MISSOULA MT
313 PM MDT SUN JUL 27 2014

Montana AWOS Reports

PLAINS      |KS34 272055Z AUTO 00000KT 40SM 32/07 A3016 RMK AO1 T03220067






000
SXUS55 KMSO 272103
OSOMSO
MONTANA AWOS SUMMARY
NATIONAL WEATHER SERVICE MISSOULA MT
302 PM MDT SUN JUL 27 2014

Montana AWOS Reports

LAUREL      |K6S8 272055Z AUTO 04007KT 40SM 29/06 A3023 RMK AO1 T02940056
ROUNDUP     |KRPX 272055Z AUTO 00000KT 40SM 29/03 A3016 RMK AO1 T02890028
SCOBEY      |K9S2 272055Z AUTO 26004KT 23/12 A3025 RMK AO1 T02280122
EKALAKA     |K97M 272055Z AUTO 00000KT 40SM 24/07 A3027 RMK AO1 T02440072






000
SXUS55 KMSO 272044
OSOMSO
MONTANA AWOS SUMMARY
NATIONAL WEATHER SERVICE MISSOULA MT
243 PM MDT SUN JUL 27 2014

Montana AWOS Reports

MALTA       |KM75 272035Z AUTO 00000KT 40SM 27/10 A3020 RMK AO1 T02720100






000
SXUS55 KMSO 272024
OSOMSO
MONTANA AWOS SUMMARY
NATIONAL WEATHER SERVICE MISSOULA MT
223 PM MDT SUN JUL 27 2014

Montana AWOS Reports

LAUREL      |K6S8 272015Z AUTO VRB06KT 40SM 29/06 A3023 RMK AO1 T02890061
ROUNDUP     |KRPX 272015Z AUTO 00000KT 40SM 28/03 A3017 RMK AO1 T02780033






000
SXUS55 KMSO 272004
OSOMSO
MONTANA AWOS SUMMARY
NATIONAL WEATHER SERVICE MISSOULA MT
204 PM MDT SUN JUL 27 2014

Montana AWOS Reports

MALTA       |KM75 271855Z AUTO 00000KT 40SM 25/11 A3021 RMK AO1 T02500111
EKALAKA     |K97M 271955Z AUTO 34005KT 40SM 24/07 A3027 RMK AO1 T02390072
PLAINS      |KS34 271955Z AUTO 00000KT 40SM 31/08 A3018 RMK AO1 T03110078
LAUREL      |K6S8 271955Z AUTO 06004KT 40SM 28/06 A3024 RMK AO1 T02830056
ROUNDUP     |KRPX 271955Z AUTO 16005KT 40SM 28/04 A3017 RMK AO1 T02830044
SCOBEY      |K9S2 271955Z AUTO 00000KT 22/12 A3026 RMK AO1 T02170122






000
SXUS55 KMSO 271943
OSOMSO
MONTANA AWOS SUMMARY
NATIONAL WEATHER SERVICE MISSOULA MT
143 PM MDT SUN JUL 27 2014

Montana AWOS Reports

LAUREL      |K6S8 271935Z AUTO 04007KT 40SM 28/07 A3024 RMK AO1 T02830067
ROUNDUP     |KRPX 271935Z AUTO 13004KT 40SM 27/04 A3018 RMK AO1 T02720044
MALTA       |KM75 271655Z AUTO 00000KT 40SM 23/11 A3024 RMK AO1 T02280111






000
SXUS55 KMSO 271924
OSOMSO
MONTANA AWOS SUMMARY
NATIONAL WEATHER SERVICE MISSOULA MT
123 PM MDT SUN JUL 27 2014

Montana AWOS Reports

LAUREL      |K6S8 271915Z AUTO 04005KT 40SM 28/06 A3025 RMK AO1 T02780056
ROUNDUP     |KRPX 271915Z AUTO 19004KT 40SM 27/04 A3018 RMK AO1 T02720044






000
SXUS55 KMSO 271913
OSOMSO
MONTANA AWOS SUMMARY
NATIONAL WEATHER SERVICE MISSOULA MT
113 PM MDT SUN JUL 27 2014

Montana AWOS Reports

MALTA       |KM75 271855Z AUTO 00000KT 40SM 25/11 A3021 RMK AO1 T02500111






000
SXUS55 KMSO 271903
OSOMSO
MONTANA AWOS SUMMARY
NATIONAL WEATHER SERVICE MISSOULA MT
102 PM MDT SUN JUL 27 2014

Montana AWOS Reports

LAUREL      |K6S8 271855Z AUTO 04008KT 40SM 28/06 A3025 RMK AO1 T02780056
ROUNDUP     |KRPX 271855Z AUTO 31006KT 40SM 27/05 A3019 RMK AO1 T02670050
SCOBEY      |K9S2 271855Z AUTO 00000KT 21/13 A3026 RMK AO1 T02110128
EKALAKA     |K97M 271855Z AUTO 31005KT 40SM 23/08 A3027 RMK AO1 T02330083
PLAINS      |KS34 271855Z AUTO 00000KT 40SM 29/07 A3019 RMK AO1 T02890067






000
SXUS55 KMSO 271843
OSOMSO
MONTANA AWOS SUMMARY
NATIONAL WEATHER SERVICE MISSOULA MT
1243 PM MDT SUN JUL 27 2014

Montana AWOS Reports

LAUREL      |K6S8 271835Z AUTO 05005KT 40SM 27/05 A3026 RMK AO1 T02720050
ROUNDUP     |KRPX 271835Z AUTO 15005KT 40SM 26/04 A3019 RMK AO1 T02610044






000
SXUS55 KMSO 271824
OSOMSO
MONTANA AWOS SUMMARY
NATIONAL WEATHER SERVICE MISSOULA MT
1223 PM MDT SUN JUL 27 2014

Montana AWOS Reports

LAUREL      |K6S8 271815Z AUTO 06007KT 40SM 27/04 A3026 RMK AO1 T02670044
ROUNDUP     |KRPX 271815Z AUTO 00000KT 40SM 26/04 A3020 RMK AO1 T02560044






000
SXUS55 KMSO 271804
OSOMSO
MONTANA AWOS SUMMARY
NATIONAL WEATHER SERVICE MISSOULA MT
1203 PM MDT SUN JUL 27 2014

Montana AWOS Reports

LAUREL      |K6S8 271755Z AUTO 06006KT 40SM 26/04 A3027 RMK AO1 T02610044
ROUNDUP     |KRPX 271755Z AUTO 15004KT 40SM 26/05 A3020 RMK AO1 T02560050
SCOBEY      |K9S2 271755Z AUTO 00000KT 21/13 A3027 RMK AO1 T02060128
EKALAKA     |K97M 271755Z AUTO 34010KT 40SM 22/09 A3028 RMK AO1 T02220089






000
SXUS55 KMSO 271754
OSOMSO
MONTANA AWOS SUMMARY
NATIONAL WEATHER SERVICE MISSOULA MT
1153 AM MDT SUN JUL 27 2014

Montana AWOS Reports

PLAINS      |KS34 271555Z AUTO 40SM 18/06 A3024 RMK AO1 T01830061
PLAINS      |KS34 271655Z AUTO 00000KT 40SM 22/06 A3023 RMK AO1 T02220061






000
SXUS55 KMSO 271743
OSOMSO
MONTANA AWOS SUMMARY
NATIONAL WEATHER SERVICE MISSOULA MT
1143 AM MDT SUN JUL 27 2014

Montana AWOS Reports

LAUREL      |K6S8 271735Z AUTO 03006KT 40SM 26/07 A3028 RMK AO1 T02560067
ROUNDUP     |KRPX 271735Z AUTO 00000KT 40SM 25/05 A3021 RMK AO1 T02500050
MALTA       |KM75 271735Z AUTO 00000KT 40SM 24/11 A3023 RMK AO1 T02390111






000
SXUS55 KMSO 271723
OSOMSO
MONTANA AWOS SUMMARY
NATIONAL WEATHER SERVICE MISSOULA MT
1122 AM MDT SUN JUL 27 2014

Montana AWOS Reports

LAUREL      |K6S8 271715Z AUTO 02005KT 40SM 24/07 A3028 RMK AO1 T02440067
ROUNDUP     |KRPX 271715Z AUTO 00000KT 40SM 24/06 A3021 RMK AO1 T02440056






000
SXUS55 KMSO 271713
OSOMSO
MONTANA AWOS SUMMARY
NATIONAL WEATHER SERVICE MISSOULA MT
1113 AM MDT SUN JUL 27 2014

Montana AWOS Reports

EKALAKA     |K97M 271655Z AUTO 00000KT 40SM 21/10 A3029 RMK AO1 T02110100
SCOBEY      |K9S2 271455Z AUTO 00000KT 16/13 A3026 RMK AO1 T01560128
SCOBEY      |K9S2 271655Z AUTO 30004KT 19/12 A3027 RMK AO1 T01940122






000
SXUS55 KMSO 271703
OSOMSO
MONTANA AWOS SUMMARY
NATIONAL WEATHER SERVICE MISSOULA MT
1103 AM MDT SUN JUL 27 2014

Montana AWOS Reports

LAUREL      |K6S8 271655Z AUTO 02006KT 40SM 23/06 A3028 RMK AO1 T02330061
ROUNDUP     |KRPX 271655Z AUTO 00000KT 40SM 23/04 A3022 RMK AO1 T02330044






000
SXUS55 KMSO 271643
OSOMSO
MONTANA AWOS SUMMARY
NATIONAL WEATHER SERVICE MISSOULA MT
1043 AM MDT SUN JUL 27 2014

Montana AWOS Reports

LAUREL      |K6S8 271635Z AUTO 00000KT 40SM 23/07 A3029 RMK AO1 T02280072
ROUNDUP     |KRPX 271635Z AUTO 16005KT 40SM 23/05 A3022 RMK AO1 T02280050
MALTA       |KM75 271635Z AUTO 00000KT 40SM 22/12 A3024 RMK AO1 T02220117






000
SXUS55 KMSO 271633
OSOMSO
MONTANA AWOS SUMMARY
NATIONAL WEATHER SERVICE MISSOULA MT
1033 AM MDT SUN JUL 27 2014

Montana AWOS Reports

EKALAKA     |K97M 271555Z AUTO 32008KT 40SM 19/09 A3029 RMK AO1 T01940094






000
SXUS55 KMSO 271624
OSOMSO
MONTANA AWOS SUMMARY
NATIONAL WEATHER SERVICE MISSOULA MT
1023 AM MDT SUN JUL 27 2014

Montana AWOS Reports

LAUREL      |K6S8 271615Z AUTO 02004KT 40SM 22/07 A3029 RMK AO1 T02170072
ROUNDUP     |KRPX 271615Z AUTO 18004KT 40SM 22/06 A3022 RMK AO1 T02220061






000
SXUS55 KMSO 271603
OSOMSO
MONTANA AWOS SUMMARY
NATIONAL WEATHER SERVICE MISSOULA MT
1002 AM MDT SUN JUL 27 2014

Montana AWOS Reports

LAUREL      |K6S8 271555Z AUTO 00000KT 40SM 21/07 A3029 RMK AO1 T02110067
ROUNDUP     |KRPX 271555Z AUTO 20006KT 40SM 21/07 A3022 RMK AO1 T02110067






000
SXUS55 KMSO 271553
OSOMSO
MONTANA AWOS SUMMARY
NATIONAL WEATHER SERVICE MISSOULA MT
953 AM MDT SUN JUL 27 2014

Montana AWOS Reports

MALTA       |KM75 271535Z AUTO 40SM 19/12 A3024 RMK AO1 T01940117






000
SXUS55 KMSO 271544
OSOMSO
MONTANA AWOS SUMMARY
NATIONAL WEATHER SERVICE MISSOULA MT
943 AM MDT SUN JUL 27 2014

Montana AWOS Reports

LAUREL      |K6S8 271535Z AUTO 00000KT 40SM 20/07 A3029 RMK AO1 T02000072
ROUNDUP     |KRPX 271535Z AUTO 00000KT 40SM 20/07 A3022 RMK AO1 T02000067






000
SXUS55 KMSO 271523
OSOMSO
MONTANA AWOS SUMMARY
NATIONAL WEATHER SERVICE MISSOULA MT
923 AM MDT SUN JUL 27 2014

Montana AWOS Reports

LAUREL      |K6S8 271515Z AUTO 00000KT 40SM 19/07 A3029 RMK AO1 T01890072
ROUNDUP     |KRPX 271515Z AUTO 00000KT 40SM 19/06 A3022 RMK AO1 T01890061






000
SXUS55 KMSO 271504
OSOMSO
MONTANA AWOS SUMMARY
NATIONAL WEATHER SERVICE MISSOULA MT
903 AM MDT SUN JUL 27 2014

Montana AWOS Reports

LAUREL      |K6S8 271455Z AUTO 00000KT 40SM 18/07 A3029 RMK AO1 T01830072
ROUNDUP     |KRPX 271455Z AUTO 00000KT 40SM 18/06 A3022 RMK AO1 T01780061
MALTA       |KM75 271455Z AUTO 00000KT 40SM 17/11 A3024 RMK AO1 T01720111
PLAINS      |KS34 271355Z AUTO 40SM 11/06 A3024 RMK AO1 T01060061
SCOBEY      |K9S2 271355Z AUTO 00000KT 15/13 A3025 RMK AO1 T01500128
PLAINS      |KS34 271455Z AUTO 40SM 14/06 A3025 RMK AO1 T01440061






000
SXUS55 KMSO 271443
OSOMSO
MONTANA AWOS SUMMARY
NATIONAL WEATHER SERVICE MISSOULA MT
843 AM MDT SUN JUL 27 2014

Montana AWOS Reports

LAUREL      |K6S8 271435Z AUTO 00000KT 40SM 17/08 A3029 RMK AO1 T01720078
ROUNDUP     |KRPX 271435Z AUTO 21005KT 40SM 16/06 A3022 RMK AO1 T01610056
MALTA       |KM75 271435Z AUTO 00000KT 40SM 16/11 A3024 RMK AO1 T01610106






000
SXUS55 KMSO 271423
OSOMSO
MONTANA AWOS SUMMARY
NATIONAL WEATHER SERVICE MISSOULA MT
823 AM MDT SUN JUL 27 2014

Montana AWOS Reports

LAUREL      |K6S8 271415Z AUTO 00000KT 40SM 16/07 A3029 RMK AO1 T01560072
ROUNDUP     |KRPX 271415Z AUTO 00000KT 40SM 15/05 A3022 RMK AO1 T01500050






000
SXUS55 KMSO 271403
OSOMSO
MONTANA AWOS SUMMARY
NATIONAL WEATHER SERVICE MISSOULA MT
802 AM MDT SUN JUL 27 2014

Montana AWOS Reports

LAUREL      |K6S8 271355Z AUTO 00000KT 40SM 14/07 A3029 RMK AO1 T01440072
ROUNDUP     |KRPX 271355Z AUTO 00000KT 40SM 14/04 A3022 RMK AO1 T01440044






000
SXUS55 KMSO 271344
OSOMSO
MONTANA AWOS SUMMARY
NATIONAL WEATHER SERVICE MISSOULA MT
743 AM MDT SUN JUL 27 2014

Montana AWOS Reports

LAUREL      |K6S8 271335Z AUTO 00000KT 40SM 14/07 A3028 RMK AO1 T01390067
ROUNDUP     |KRPX 271335Z AUTO 00000KT 40SM 13/04 A3021 RMK AO1 T01330039






000
SXUS55 KMSO 271323
OSOMSO
MONTANA AWOS SUMMARY
NATIONAL WEATHER SERVICE MISSOULA MT
723 AM MDT SUN JUL 27 2014

Montana AWOS Reports

LAUREL      |K6S8 271315Z AUTO 00000KT 40SM 15/07 A3028 RMK AO1 T01500067
ROUNDUP     |KRPX 271315Z AUTO 00000KT 40SM 12/04 A3021 RMK AO1 T01220039
MALTA       |KM75 271315Z AUTO 00000KT 40SM 11/08 A3023 RMK AO1 T01060083






000
SXUS55 KMSO 271303
OSOMSO
MONTANA AWOS SUMMARY
NATIONAL WEATHER SERVICE MISSOULA MT
703 AM MDT SUN JUL 27 2014

Montana AWOS Reports

LAUREL      |K6S8 271255Z AUTO 00000KT 40SM 14/06 A3027 RMK AO1 T01390056
ROUNDUP     |KRPX 271255Z AUTO 22005KT 40SM 11/03 A3021 RMK AO1 T01110033






000
SXUS55 KMSO 271253
OSOMSO
MONTANA AWOS SUMMARY
NATIONAL WEATHER SERVICE MISSOULA MT
653 AM MDT SUN JUL 27 2014

Montana AWOS Reports

MALTA       |KM75 271235Z AUTO 00000KT 40SM 09/07 A3022 RMK AO1 T00890067






000
SXUS55 KMSO 271243
OSOMSO
MONTANA AWOS SUMMARY
NATIONAL WEATHER SERVICE MISSOULA MT
643 AM MDT SUN JUL 27 2014

Montana AWOS Reports

LAUREL      |K6S8 271235Z AUTO 00000KT 40SM 12/05 A3028 RMK AO1 T01170050
ROUNDUP     |KRPX 271235Z AUTO 24004KT 40SM 10/03 A3021 RMK AO1 T01000028






000
SXUS55 KMSO 271233
OSOMSO
MONTANA AWOS SUMMARY
NATIONAL WEATHER SERVICE MISSOULA MT
633 AM MDT SUN JUL 27 2014

Montana AWOS Reports

MALTA       |KM75 271215Z AUTO 00000KT 25SM 08/06 A3022 RMK AO1 T00830061






000
SXUS55 KMSO 271223
OSOMSO
MONTANA AWOS SUMMARY
NATIONAL WEATHER SERVICE MISSOULA MT
623 AM MDT SUN JUL 27 2014

Montana AWOS Reports

LAUREL      |K6S8 271215Z AUTO 00000KT 40SM 12/05 A3028 RMK AO1 T01170050
ROUNDUP     |KRPX 271215Z AUTO 24005KT 40SM 10/03 A3020 RMK AO1 T01000028






000
SXUS55 KMSO 271204
OSOMSO
MONTANA AWOS SUMMARY
NATIONAL WEATHER SERVICE MISSOULA MT
603 AM MDT SUN JUL 27 2014

Montana AWOS Reports

LAUREL      |K6S8 271155Z AUTO 00000KT 40SM 11/04 A3027 RMK AO1 T01110039
ROUNDUP     |KRPX 271155Z AUTO 00000KT 40SM 09/02 A3020 RMK AO1 T00940022
SCOBEY      |K9S2 271155Z AUTO 00000KT 13/11 A3022 RMK AO1 T01280106
EKALAKA     |K97M 271155Z AUTO 00000KT 40SM 11/07 A3024 RMK AO1 T01060072
PLAINS      |KS34 271155Z AUTO 40SM 07/03 A3022 RMK AO1 T00720028
MALTA       |KM75 271155Z AUTO 00000KT 25SM 08/06 A3022 RMK AO1 T00830061






000
SXUS55 KMSO 271143
OSOMSO
MONTANA AWOS SUMMARY
NATIONAL WEATHER SERVICE MISSOULA MT
543 AM MDT SUN JUL 27 2014

Montana AWOS Reports

LAUREL      |K6S8 271135Z AUTO 00000KT 40SM 11/04 A3027 RMK AO1 T01110039
ROUNDUP     |KRPX 271135Z AUTO 00000KT 40SM 10/03 A3020 RMK AO1 T01000028
MALTA       |KM75 271135Z AUTO 00000KT 25SM 08/06 A3021 RMK AO1 T00830056






000
SXUS55 KMSO 271133
OSOMSO
MONTANA AWOS SUMMARY
NATIONAL WEATHER SERVICE MISSOULA MT
532 AM MDT SUN JUL 27 2014

Montana AWOS Reports

SCOBEY      |K9S2 271055Z AUTO 00000KT 13/11 A3020 RMK AO1 T01280106
PLAINS      |KS34 271055Z AUTO 40SM 08/03 A3021 RMK AO1 T00830033
EKALAKA     |K97M 271055Z AUTO 00000KT 40SM 10/07 A3023 RMK AO1 T01000067






000
SXUS55 KMSO 271123
OSOMSO
MONTANA AWOS SUMMARY
NATIONAL WEATHER SERVICE MISSOULA MT
523 AM MDT SUN JUL 27 2014

Montana AWOS Reports

LAUREL      |K6S8 271115Z AUTO 00000KT 40SM 12/04 A3027 RMK AO1 T01220044
ROUNDUP     |KRPX 271115Z AUTO 00000KT 40SM 11/03 A3020 RMK AO1 T01110033






000
SXUS55 KMSO 271103
OSOMSO
MONTANA AWOS SUMMARY
NATIONAL WEATHER SERVICE MISSOULA MT
503 AM MDT SUN JUL 27 2014

Montana AWOS Reports

LAUREL      |K6S8 271055Z AUTO 00000KT 40SM 13/04 A3026 RMK AO1 T01330039
ROUNDUP     |KRPX 271055Z AUTO 00000KT 40SM 11/03 A3020 RMK AO1 T01060033
MALTA       |KM75 271055Z AUTO 00000KT 25SM 09/06 A3020 RMK AO1 T00890061






000
SXUS55 KMSO 271053
OSOMSO
MONTANA AWOS SUMMARY
NATIONAL WEATHER SERVICE MISSOULA MT
452 AM MDT SUN JUL 27 2014

Montana AWOS Reports

MALTA       |KM75 271035Z AUTO 00000KT 40SM 09/06 A3020 RMK AO1 T00890061






000
SXUS55 KMSO 271043
OSOMSO
MONTANA AWOS SUMMARY
NATIONAL WEATHER SERVICE MISSOULA MT
442 AM MDT SUN JUL 27 2014

Montana AWOS Reports

LAUREL      |K6S8 271035Z AUTO 00000KT 40SM 14/04 A3026 RMK AO1 T01390039
ROUNDUP     |KRPX 271035Z AUTO 00000KT 40SM 11/03 A3019 RMK AO1 T01060033






000
SXUS55 KMSO 271033
OSOMSO
MONTANA AWOS SUMMARY
NATIONAL WEATHER SERVICE MISSOULA MT
433 AM MDT SUN JUL 27 2014

Montana AWOS Reports

MALTA       |KM75 271015Z AUTO 00000KT 40SM 09/07 A3020 RMK AO1 T00940067






000
SXUS55 KMSO 271023
OSOMSO
MONTANA AWOS SUMMARY
NATIONAL WEATHER SERVICE MISSOULA MT
423 AM MDT SUN JUL 27 2014

Montana AWOS Reports

LAUREL      |K6S8 271015Z AUTO 00000KT 40SM 14/03 A3026 RMK AO1 T01440033
ROUNDUP     |KRPX 271015Z AUTO 00000KT 40SM 11/03 A3019 RMK AO1 T01110028






000
SXUS55 KMSO 271013
OSOMSO
MONTANA AWOS SUMMARY
NATIONAL WEATHER SERVICE MISSOULA MT
413 AM MDT SUN JUL 27 2014

Montana AWOS Reports

SCOBEY      |K9S2 270955Z AUTO 00000KT 12/10 A3019 RMK AO1 T01220100
EKALAKA     |K97M 270955Z AUTO 00000KT 40SM 11/06 A3022 RMK AO1 T01110061






000
SXUS55 KMSO 271004
OSOMSO
MONTANA AWOS SUMMARY
NATIONAL WEATHER SERVICE MISSOULA MT
403 AM MDT SUN JUL 27 2014

Montana AWOS Reports

LAUREL      |K6S8 270955Z AUTO 34004KT 40SM 14/03 A3026 RMK AO1 T01440033
ROUNDUP     |KRPX 270955Z AUTO 00000KT 40SM 12/03 A3019 RMK AO1 T01170028
MALTA       |KM75 270955Z AUTO 00000KT 40SM 09/07 A3020 RMK AO1 T00940067
PLAINS      |KS34 270955Z AUTO 40SM 09/03 A3021 RMK AO1 T00940033






000
SXUS55 KMSO 270953
OSOMSO
MONTANA AWOS SUMMARY
NATIONAL WEATHER SERVICE MISSOULA MT
353 AM MDT SUN JUL 27 2014

Montana AWOS Reports

MALTA       |KM75 270855Z AUTO 00000KT 40SM 10/07 A3019 RMK AO1 T01000072






000
SXUS55 KMSO 270943
OSOMSO
MONTANA AWOS SUMMARY
NATIONAL WEATHER SERVICE MISSOULA MT
343 AM MDT SUN JUL 27 2014

Montana AWOS Reports

LAUREL      |K6S8 270935Z AUTO 00000KT 40SM 14/02 A3026 RMK AO1 T01440022
ROUNDUP     |KRPX 270935Z AUTO 00000KT 40SM 12/03 A3019 RMK AO1 T01170028
MALTA       |KM75 270935Z AUTO 00000KT 40SM 10/07 A3020 RMK AO1 T01000072






000
SXUS55 KMSO 270933
OSOMSO
MONTANA AWOS SUMMARY
NATIONAL WEATHER SERVICE MISSOULA MT
333 AM MDT SUN JUL 27 2014

Montana AWOS Reports

MALTA       |KM75 270915Z AUTO 00000KT 40SM 09/07 A3020 RMK AO1 T00940067






000
SXUS55 KMSO 270923
OSOMSO
MONTANA AWOS SUMMARY
NATIONAL WEATHER SERVICE MISSOULA MT
323 AM MDT SUN JUL 27 2014

Montana AWOS Reports

LAUREL      |K6S8 270915Z AUTO 34004KT 40SM 14/02 A3026 RMK AO1 T01440022
ROUNDUP     |KRPX 270915Z AUTO 00000KT 40SM 12/03 A3019 RMK AO1 T01220028






000
SXUS55 KMSO 270913
OSOMSO
MONTANA AWOS SUMMARY
NATIONAL WEATHER SERVICE MISSOULA MT
313 AM MDT SUN JUL 27 2014

Montana AWOS Reports

ROUNDUP     |KRPX 270855Z AUTO 00000KT 40SM 13/03 A3019 RMK AO1 T01280033
EKALAKA     |K97M 270855Z AUTO 32004KT 40SM 12/07 A3021 RMK AO1 T01220072
PLAINS      |KS34 270855Z AUTO 40SM 10/03 A3020 RMK AO1 T01000033






000
SXUS55 KMSO 270903
OSOMSO
MONTANA AWOS SUMMARY
NATIONAL WEATHER SERVICE MISSOULA MT
303 AM MDT SUN JUL 27 2014

Montana AWOS Reports

LAUREL      |K6S8 270855Z AUTO 00000KT 40SM 15/02 A3026 RMK AO1 T01500022






000
SXUS55 KMSO 270843
OSOMSO
MONTANA AWOS SUMMARY
NATIONAL WEATHER SERVICE MISSOULA MT
243 AM MDT SUN JUL 27 2014

Montana AWOS Reports

LAUREL      |K6S8 270835Z AUTO 00000KT 40SM 16/02 A3026 RMK AO1 T01560022
ROUNDUP     |KRPX 270835Z AUTO 00000KT 40SM 13/03 A3019 RMK AO1 T01280028
MALTA       |KM75 270835Z AUTO 00000KT 40SM 10/07 A3019 RMK AO1 T01000067






000
SXUS55 KMSO 270824
OSOMSO
MONTANA AWOS SUMMARY
NATIONAL WEATHER SERVICE MISSOULA MT
223 AM MDT SUN JUL 27 2014

Montana AWOS Reports

LAUREL      |K6S8 270815Z AUTO 00000KT 40SM 16/02 A3025 RMK AO1 T01610022
ROUNDUP     |KRPX 270815Z AUTO 00000KT 40SM 14/03 A3019 RMK AO1 T01390028
MALTA       |KM75 270815Z AUTO 00000KT 40SM 11/08 A3018 RMK AO1 T01110078






000
SXUS55 KMSO 270813
OSOMSO
MONTANA AWOS SUMMARY
NATIONAL WEATHER SERVICE MISSOULA MT
213 AM MDT SUN JUL 27 2014

Montana AWOS Reports

EKALAKA     |K97M 270755Z AUTO 32004KT 40SM 12/07 A3020 RMK AO1 T01220067






000
SXUS55 KMSO 270803
OSOMSO
MONTANA AWOS SUMMARY
NATIONAL WEATHER SERVICE MISSOULA MT
203 AM MDT SUN JUL 27 2014

Montana AWOS Reports

LAUREL      |K6S8 270755Z AUTO 00000KT 40SM 16/02 A3025 RMK AO1 T01560017
ROUNDUP     |KRPX 270755Z AUTO 00000KT 40SM 14/03 A3019 RMK AO1 T01440028
PLAINS      |KS34 270755Z AUTO 25SM 11/03 A3019 RMK AO1 T01110033






000
SXUS55 KMSO 270743
OSOMSO
MONTANA AWOS SUMMARY
NATIONAL WEATHER SERVICE MISSOULA MT
143 AM MDT SUN JUL 27 2014

Montana AWOS Reports

LAUREL      |K6S8 270735Z AUTO 34004KT 40SM 16/02 A3024 RMK AO1 T01560022
ROUNDUP     |KRPX 270735Z AUTO 00000KT 40SM 15/02 A3019 RMK AO1 T01500022






000
SXUS55 KMSO 270733
OSOMSO
MONTANA AWOS SUMMARY
NATIONAL WEATHER SERVICE MISSOULA MT
133 AM MDT SUN JUL 27 2014

Montana AWOS Reports

MALTA       |KM75 270655Z AUTO 00000KT 40SM 14/09 A3017 RMK AO1 T01390089






000
SXUS55 KMSO 270723
OSOMSO
MONTANA AWOS SUMMARY
NATIONAL WEATHER SERVICE MISSOULA MT
122 AM MDT SUN JUL 27 2014

Montana AWOS Reports

LAUREL      |K6S8 270715Z AUTO 00000KT 40SM 15/02 A3025 RMK AO1 T01500022
ROUNDUP     |KRPX 270715Z AUTO 00000KT 40SM 15/02 A3019 RMK AO1 T01500022






000
SXUS55 KMSO 270703
OSOMSO
MONTANA AWOS SUMMARY
NATIONAL WEATHER SERVICE MISSOULA MT
103 AM MDT SUN JUL 27 2014

Montana AWOS Reports

LAUREL      |K6S8 270655Z AUTO 00000KT 40SM 16/02 A3024 RMK AO1 T01560022
ROUNDUP     |KRPX 270655Z AUTO 00000KT 40SM 16/02 A3019 RMK AO1 T01610022
SCOBEY      |K9S2 270655Z AUTO 00000KT 12/09 A3016 RMK AO1 T01170089
EKALAKA     |K97M 270655Z AUTO 32004KT 40SM 13/07 A3020 RMK AO1 T01330072
PLAINS      |KS34 270655Z AUTO 25SM 13/04 A3018 RMK AO1 T01280039






000
SXUS55 KMSO 270644
OSOMSO
MONTANA AWOS SUMMARY
NATIONAL WEATHER SERVICE MISSOULA MT
1243 AM MDT SUN JUL 27 2014

Montana AWOS Reports

LAUREL      |K6S8 270635Z AUTO 00000KT 40SM 16/03 A3024 RMK AO1 T01610028
ROUNDUP     |KRPX 270635Z AUTO 00000KT 40SM 16/02 A3018 RMK AO1 T01610017






000
SXUS55 KMSO 270623
OSOMSO
MONTANA AWOS SUMMARY
NATIONAL WEATHER SERVICE MISSOULA MT
1223 AM MDT SUN JUL 27 2014

Montana AWOS Reports

LAUREL      |K6S8 270615Z AUTO 00000KT 40SM 17/03 A3023 RMK AO1 T01720028
MALTA       |KM75 270615Z AUTO 00000KT 40SM 15/09 A3016 RMK AO1 T01500089
ROUNDUP     |KRPX 270615Z AUTO 00000KT 40SM 16/02 A3018 RMK AO1 T01610017






000
SXUS55 KMSO 270613
OSOMSO
MONTANA AWOS SUMMARY
NATIONAL WEATHER SERVICE MISSOULA MT
1212 AM MDT SUN JUL 27 2014

Montana AWOS Reports

ROUNDUP     |KRPX 270555Z AUTO 00000KT 40SM 17/02 A3017 RMK AO1 T01670017
SCOBEY      |K9S2 270555Z AUTO 00000KT 12/09 A3014 RMK AO1 T01220094
EKALAKA     |K97M 270555Z AUTO 32004KT 40SM 14/07 A3019 RMK AO1 T01390072
PLAINS      |KS34 270555Z AUTO 25SM 14/05 A3017 RMK AO1 T01440050
MALTA       |KM75 270555Z AUTO 00000KT 40SM 15/09 A3016 RMK AO1 T01500089






000
SXUS55 KMSO 270604
OSOMSO
MONTANA AWOS SUMMARY
NATIONAL WEATHER SERVICE MISSOULA MT
1203 AM MDT SUN JUL 27 2014

Montana AWOS Reports

LAUREL      |K6S8 270555Z AUTO 34004KT 40SM 17/03 A3023 RMK AO1 T01720033






000
SXUS55 KMSO 270544
OSOMSO
MONTANA AWOS SUMMARY
NATIONAL WEATHER SERVICE MISSOULA MT
1143 PM MDT SAT JUL 26 2014

Montana AWOS Reports

ROUNDUP     |KRPX 270535Z AUTO 00000KT 40SM 17/01 A3016 RMK AO1 T01720006






000
SXUS55 KMSO 270524
OSOMSO
MONTANA AWOS SUMMARY
NATIONAL WEATHER SERVICE MISSOULA MT
1123 PM MDT SAT JUL 26 2014

Montana AWOS Reports

ROUNDUP     |KRPX 270515Z AUTO 00000KT 40SM 18/01 A3015 RMK AO1 T01830011
MALTA       |KM75 270515Z AUTO 34004KT 40SM 17/09 A3014 RMK AO1 T01720094






000
SXUS55 KMSO 270513
OSOMSO
MONTANA AWOS SUMMARY
NATIONAL WEATHER SERVICE MISSOULA MT
1113 PM MDT SAT JUL 26 2014

Montana AWOS Reports

ROUNDUP     |KRPX 270455Z AUTO 00000KT 40SM 19/01 A3014 RMK AO1 T01890011
SCOBEY      |K9S2 270455Z AUTO 00000KT 14/10 A3013 RMK AO1 T01440100
MALTA       |KM75 270455Z AUTO 34004KT 40SM 17/09 A3014 RMK AO1 T01720094
EKALAKA     |K97M 270455Z AUTO 32004KT 40SM 16/07 A3018 RMK AO1 T01560072






000
SXUS55 KMSO 270503
OSOMSO
MONTANA AWOS SUMMARY
NATIONAL WEATHER SERVICE MISSOULA MT
1103 PM MDT SAT JUL 26 2014

Montana AWOS Reports

LAUREL      |K6S8 270455Z AUTO 00000KT 40SM 18/04 A3022 RMK AO1 T01780039
PLAINS      |KS34 270455Z AUTO 40SM 18/06 A3017 RMK AO1 T01780056






    US Dept of Commerce
    National Oceanic and Atmospheric Administration
    National Weather Service
    1325 East West Highway
    Silver Spring, MD 20910
    Page Author: NWS Internet Services Team
Disclaimer
Information Quality
Credits
Glossary
Privacy Policy
Freedom of Information Act (FOIA)
About Us
Career Opportunities